Time,TemperatureF,DewpointF,PressureIn,WindDirection,WindDirectionDegrees,WindSpeedMPH,WindSpeedGustMPH,Humidity,HourlyPrecipIn,Conditions,Clouds,dailyrainin,SoftwareType,DateUTC
2013-12-27 00:00:00,48.6,17.0,30.06,South,190,3.1,3.1,28,0.00,,---,0.00,VWS V14.01,2013-12-27 07:00:00,
2013-12-27 00:01:00,48.6,17.0,30.06,SSW,196,2.2,2.7,28,0.00,,---,0.00,VWS V14.01,2013-12-27 07:01:00,
2013-12-27 00:02:00,48.6,17.0,30.06,SSW,196,2.7,2.7,28,0.00,,---,0.00,VWS V14.01,2013-12-27 07:02:00,
2013-12-27 00:03:00,48.6,17.0,30.06,SSW,196,0.0,0.0,28,0.00,,---,0.00,VWS V14.01,2013-12-27 07:03:00,
2013-12-27 00:04:00,48.6,17.0,30.06,SSW,196,0.0,0.0,28,0.00,,---,0.00,VWS V14.01,2013-12-27 07:04:00,
2013-12-27 00:05:00,48.6,17.0,30.06,SSW,196,0.0,0.0,28,0.00,,---,0.00,VWS V14.01,2013-12-27 07:05:00,
2013-12-27 00:06:00,48.6,17.0,30.06,SSW,196,0.0,0.0,28,0.00,,---,0.00,VWS V14.01,2013-12-27 07:06:00,
2013-12-27 00:07:00,48.4,16.8,30.06,SSW,196,0.0,0.0,28,0.00,,---,0.00,VWS V14.01,2013-12-27 07:07:00,
2013-12-27 00:08:00,48.2,16.6,30.06,SSW,196,0.0,0.0,28,0.00,,---,0.00,VWS V14.01,2013-12-27 07:08:00,
2013-12-27 00:09:00,48.0,17.3,30.06,SSW,196,0.0,0.0,29,0.00,,---,0.00,VWS V14.01,2013-12-27 07:09:00,
2013-12-27 00:10:00,47.8,17.1,30.06,SSW,196,0.0,0.0,29,0.00,,---,0.00,VWS V14.01,2013-12-27 07:10:00,
2013-12-27 00:11:00,47.8,17.1,30.06,SSW,196,0.0,0.0,29,0.00,,---,0.00,VWS V14.01,2013-12-27 07:11:00,
2013-12-27 00:12:00,47.7,17.0,30.06,SSW,196,0.0,0.0,29,0.00,,---,0.00,VWS V14.01,2013-12-27 07:12:00,
2013-12-27 00:13:00,47.5,16.8,30.06,SSW,196,0.0,0.0,29,0.00,,---,0.00,VWS V14.01,2013-12-27 07:13:00,
2013-12-27 00:14:00,47.5,16.8,30.06,SSW,196,0.0,0.0,29,0.00,,---,0.00,VWS V14.01,2013-12-27 07:14:00,
2013-12-27 00:15:00,47.3,16.7,30.06,SSW,196,0.0,0.0,29,0.00,,---,0.00,VWS V14.01,2013-12-27 07:15:00,
2013-12-27 00:17:00,47.1,16.5,30.06,SSW,196,0.0,0.0,29,0.00,,---,0.00,VWS V14.01,2013-12-27 07:17:00,
2013-12-27 00:18:00,46.9,16.4,30.06,SSW,196,0.0,0.0,29,0.00,,---,0.00,VWS V14.01,2013-12-27 07:18:00,
2013-12-27 00:20:00,46.6,16.0,30.06,SSW,196,0.0,0.0,29,0.00,,---,0.00,VWS V14.01,2013-12-27 07:20:00,
2013-12-27 00:22:00,46.2,15.7,30.06,SSW,196,0.0,0.0,29,0.00,,---,0.00,VWS V14.01,2013-12-27 07:22:00,
2013-12-27 00:23:00,46.2,15.7,30.06,SSW,196,0.0,0.0,29,0.00,,---,0.00,VWS V14.01,2013-12-27 07:23:00,
2013-12-27 00:25:00,46.0,15.6,30.06,SSW,196,0.0,0.0,29,0.00,,---,0.00,VWS V14.01,2013-12-27 07:25:00,
2013-12-27 00:26:00,46.0,15.6,30.06,SSW,196,0.0,0.0,29,0.00,,---,0.00,VWS V14.01,2013-12-27 07:26:00,
2013-12-27 00:27:00,45.9,15.4,30.06,SSW,196,0.0,0.0,29,0.00,,---,0.00,VWS V14.01,2013-12-27 07:27:00,
2013-12-27 00:28:00,45.7,15.3,30.06,SSW,196,0.0,0.0,29,0.00,,---,0.00,VWS V14.01,2013-12-27 07:28:00,
2013-12-27 00:30:00,45.7,15.3,30.06,SSW,196,0.0,0.0,29,0.00,,---,0.00,VWS V14.01,2013-12-27 07:30:00,
2013-12-27 00:31:00,45.5,15.9,30.06,SSW,196,0.0,0.0,30,0.00,,---,0.00,VWS V14.01,2013-12-27 07:31:00,
2013-12-27 00:32:00,45.5,15.9,30.06,SSW,196,0.0,0.0,30,0.00,,---,0.00,VWS V14.01,2013-12-27 07:32:00,
2013-12-27 00:33:00,45.5,15.9,30.06,SSW,196,0.0,0.0,30,0.00,,---,0.00,VWS V14.01,2013-12-27 07:33:00,
2013-12-27 00:36:00,45.3,15.7,30.06,SSW,196,0.0,0.0,30,0.00,,---,0.00,VWS V14.01,2013-12-27 07:36:00,
2013-12-27 00:38:00,45.1,15.6,30.06,SSW,196,0.0,0.0,30,0.00,,---,0.00,VWS V14.01,2013-12-27 07:38:00,
2013-12-27 00:39:00,45.1,15.6,30.06,SSW,196,0.0,0.0,30,0.00,,---,0.00,VWS V14.01,2013-12-27 07:39:00,
2013-12-27 00:41:00,45.3,15.7,30.06,SSW,204,3.6,4.0,30,0.00,,---,0.00,VWS V14.01,2013-12-27 07:41:00,
2013-12-27 00:43:00,45.9,15.4,30.06,SSW,197,5.4,5.4,29,0.00,,---,0.00,VWS V14.01,2013-12-27 07:43:00,
2013-12-27 00:44:00,46.0,15.6,30.06,SSW,194,5.8,5.8,29,0.00,,---,0.00,VWS V14.01,2013-12-27 07:44:00,
2013-12-27 00:45:00,41.2,12.9,30.06,NW,310,0.0,0.0,31,0.00,,,0.00,VWS V15.00,2013-12-27 07:45:00,
2013-12-27 00:46:00,46.4,15.9,30.06,WSW,258,0.0,0.0,29,0.00,,---,0.00,VWS V14.01,2013-12-27 07:46:00,
2013-12-27 00:47:00,46.4,15.9,30.06,WSW,258,0.0,0.0,29,0.00,,---,0.00,VWS V14.01,2013-12-27 07:47:00,
2013-12-27 00:48:00,46.4,15.9,30.06,WSW,258,0.0,0.0,29,0.00,,---,0.00,VWS V14.01,2013-12-27 07:48:00,
2013-12-27 00:49:00,46.4,15.9,30.06,SW,219,2.2,2.2,29,0.00,,---,0.00,VWS V14.01,2013-12-27 07:49:00,
2013-12-27 00:51:00,46.4,15.9,30.06,SSW,207,0.0,0.0,29,0.00,,---,0.00,VWS V14.01,2013-12-27 07:51:00,
2013-12-27 00:52:00,46.4,15.9,30.06,SSW,207,0.0,0.0,29,0.00,,---,0.00,VWS V14.01,2013-12-27 07:52:00,
2013-12-27 00:53:00,46.2,15.7,30.06,South,191,2.7,2.7,29,0.00,,---,0.00,VWS V14.01,2013-12-27 07:53:00,
2013-12-27 00:54:00,46.2,15.7,30.06,SSW,192,2.7,2.7,29,0.00,,---,0.00,VWS V14.01,2013-12-27 07:54:00,
2013-12-27 00:55:00,46.4,15.9,30.06,SSW,192,2.2,2.7,29,0.00,,---,0.00,VWS V14.01,2013-12-27 07:55:00,
2013-12-27 00:56:00,46.6,16.0,30.06,SSW,195,3.6,3.6,29,0.00,,---,0.00,VWS V14.01,2013-12-27 07:56:00,
2013-12-27 00:57:00,46.6,16.0,30.06,SSW,195,2.7,3.6,29,0.00,,---,0.00,VWS V14.01,2013-12-27 07:57:00,
2013-12-27 00:58:00,46.8,16.2,30.06,SSW,195,0.0,0.0,29,0.00,,---,0.00,VWS V14.01,2013-12-27 07:58:00,
2013-12-27 00:59:00,46.8,16.2,30.06,SSW,195,0.0,0.0,29,0.00,,---,0.00,VWS V14.01,2013-12-27 07:59:00,
2013-12-27 01:00:00,46.8,16.2,30.06,SSW,195,0.0,0.0,29,0.00,,---,0.00,VWS V14.01,2013-12-27 08:00:00,
2013-12-27 01:01:00,46.8,16.2,30.06,SSW,195,0.0,0.0,29,0.00,,---,0.00,VWS V14.01,2013-12-27 08:01:00,
2013-12-27 01:02:00,46.6,16.0,30.06,SSW,195,0.0,0.0,29,0.00,,---,0.00,VWS V14.01,2013-12-27 08:02:00,
2013-12-27 01:03:00,46.4,15.9,30.06,SSW,195,0.0,0.0,29,0.00,,---,0.00,VWS V14.01,2013-12-27 08:03:00,
2013-12-27 01:04:00,46.4,15.9,30.06,SSW,195,0.0,0.0,29,0.00,,---,0.00,VWS V14.01,2013-12-27 08:04:00,
2013-12-27 01:05:00,46.2,15.7,30.06,SSW,195,0.0,0.0,29,0.00,,---,0.00,VWS V14.01,2013-12-27 08:05:00,
2013-12-27 01:07:00,45.9,15.4,30.06,SSW,195,0.0,0.0,29,0.00,,---,0.00,VWS V14.01,2013-12-27 08:07:00,
2013-12-27 01:08:00,45.9,15.4,30.06,SSW,195,0.0,0.0,29,0.00,,---,0.00,VWS V14.01,2013-12-27 08:08:00,
2013-12-27 01:09:00,45.7,15.3,30.06,SSW,196,0.0,0.0,29,0.00,,---,0.00,VWS V14.01,2013-12-27 08:09:00,
2013-12-27 01:11:00,45.5,15.9,30.06,North,357,3.6,4.0,30,0.00,,---,0.00,VWS V14.01,2013-12-27 08:11:00,
2013-12-27 01:12:00,45.3,15.7,30.06,North,357,2.2,2.7,30,0.00,,---,0.00,VWS V14.01,2013-12-27 08:12:00,
2013-12-27 01:13:00,45.3,15.7,30.06,North,357,0.0,0.0,30,0.00,,---,0.00,VWS V14.01,2013-12-27 08:13:00,
2013-12-27 01:14:00,45.1,15.6,30.06,North,357,0.0,0.0,30,0.00,,---,0.00,VWS V14.01,2013-12-27 08:14:00,
2013-12-27 01:15:00,40.8,14.0,30.06,NW,308,4.0,4.0,33,0.00,,,0.00,VWS V15.00,2013-12-27 08:15:00,
2013-12-27 01:16:00,44.8,15.3,30.06,North,357,0.0,0.0,30,0.00,,---,0.00,VWS V14.01,2013-12-27 08:16:00,
2013-12-27 01:17:00,44.4,14.9,30.06,North,3,2.7,2.7,30,0.00,,---,0.00,VWS V14.01,2013-12-27 08:17:00,
2013-12-27 01:18:00,44.2,14.8,30.06,North,3,2.2,2.7,30,0.00,,---,0.00,VWS V14.01,2013-12-27 08:18:00,
2013-12-27 01:19:00,44.1,14.6,30.06,North,3,0.0,0.0,30,0.00,,---,0.00,VWS V14.01,2013-12-27 08:19:00,
2013-12-27 01:21:00,43.5,14.2,30.06,North,3,0.0,0.0,30,0.00,,---,0.00,VWS V14.01,2013-12-27 08:21:00,
2013-12-27 01:22:00,43.2,13.8,30.06,North,3,0.0,0.0,30,0.00,,---,0.00,VWS V14.01,2013-12-27 08:22:00,
2013-12-27 01:23:00,43.2,13.8,30.06,North,3,0.0,0.0,30,0.00,,---,0.00,VWS V14.01,2013-12-27 08:23:00,
2013-12-27 01:24:00,43.0,14.4,30.06,North,357,4.0,4.0,31,0.00,,---,0.00,VWS V14.01,2013-12-27 08:24:00,
2013-12-27 01:26:00,42.6,14.1,30.06,North,353,0.0,2.2,31,0.00,,---,0.00,VWS V14.01,2013-12-27 08:26:00,
2013-12-27 01:28:00,42.4,14.0,30.06,North,353,0.0,0.0,31,0.00,,---,0.00,VWS V14.01,2013-12-27 08:28:00,
2013-12-27 01:29:00,42.4,14.0,30.06,North,353,0.0,0.0,31,0.00,,---,0.00,VWS V14.01,2013-12-27 08:29:00,
2013-12-27 01:30:00,42.3,13.8,30.06,North,353,0.0,0.0,31,0.00,,---,0.00,VWS V14.01,2013-12-27 08:30:00,
2013-12-27 01:32:00,42.3,13.8,30.06,North,353,0.0,0.0,31,0.00,,---,0.00,VWS V14.01,2013-12-27 08:32:00,
2013-12-27 01:33:00,42.1,13.6,30.06,NW,311,2.7,2.7,31,0.00,,---,0.00,VWS V14.01,2013-12-27 08:33:00,
2013-12-27 01:34:00,42.1,13.6,30.06,NW,310,0.0,0.0,31,0.00,,---,0.00,VWS V14.01,2013-12-27 08:34:00,
2013-12-27 01:35:00,42.1,13.6,30.06,NW,310,0.0,0.0,31,0.00,,---,0.00,VWS V14.01,2013-12-27 08:35:00,
2013-12-27 01:37:00,41.7,13.3,30.06,NW,310,0.0,0.0,31,0.00,,---,0.00,VWS V14.01,2013-12-27 08:37:00,
2013-12-27 01:38:00,41.5,13.2,30.06,NW,310,0.0,0.0,31,0.00,,---,0.00,VWS V14.01,2013-12-27 08:38:00,
2013-12-27 01:39:00,41.5,13.2,30.06,NW,310,0.0,0.0,31,0.00,,---,0.00,VWS V14.01,2013-12-27 08:39:00,
2013-12-27 01:40:00,41.5,13.2,30.06,NW,310,0.0,0.0,31,0.00,,---,0.00,VWS V14.01,2013-12-27 08:40:00,
2013-12-27 01:42:00,41.4,13.0,30.06,NW,310,0.0,0.0,31,0.00,,---,0.00,VWS V14.01,2013-12-27 08:42:00,
2013-12-27 01:43:00,41.4,13.0,30.06,NW,310,0.0,0.0,31,0.00,,---,0.00,VWS V14.01,2013-12-27 08:43:00,
2013-12-27 01:45:00,41.2,12.9,30.06,NW,310,0.0,0.0,31,0.00,,---,0.00,VWS V14.01,2013-12-27 08:45:00,
2013-12-27 01:48:00,41.4,13.0,30.06,North,0,2.7,3.6,31,0.00,,---,0.00,VWS V14.01,2013-12-27 08:48:00,
2013-12-27 01:49:00,41.5,13.9,30.06,North,357,2.7,3.1,32,0.00,,---,0.00,VWS V14.01,2013-12-27 08:49:00,
2013-12-27 01:50:00,41.7,13.3,30.06,North,10,0.0,0.0,31,0.00,,---,0.00,VWS V14.01,2013-12-27 08:50:00,
2013-12-27 01:53:00,42.1,13.6,30.06,North,8,0.0,0.0,31,0.00,,---,0.00,VWS V14.01,2013-12-27 08:53:00,
2013-12-27 01:54:00,42.3,13.8,30.06,North,8,0.0,0.0,31,0.00,,---,0.00,VWS V14.01,2013-12-27 08:54:00,
2013-12-27 01:55:00,42.3,13.8,30.06,North,8,0.0,0.0,31,0.00,,---,0.00,VWS V14.01,2013-12-27 08:55:00,
2013-12-27 01:58:00,41.9,14.2,30.06,North,8,0.0,0.0,32,0.00,,---,0.00,VWS V14.01,2013-12-27 08:58:00,
2013-12-27 01:59:00,41.7,14.1,30.06,North,8,0.0,0.0,32,0.00,,---,0.00,VWS V14.01,2013-12-27 08:59:00,
2013-12-27 02:00:00,41.7,14.1,30.06,NNW,333,0.0,0.0,32,0.00,,---,0.00,VWS V14.01,2013-12-27 09:00:00,
2013-12-27 02:03:00,41.4,13.7,30.06,WSW,250,0.0,0.0,32,0.00,,---,0.00,VWS V14.01,2013-12-27 09:03:00,
2013-12-27 02:04:00,41.4,13.7,30.06,WSW,250,0.0,0.0,32,0.00,,---,0.00,VWS V14.01,2013-12-27 09:04:00,
2013-12-27 02:05:00,41.2,13.6,30.06,WSW,250,0.0,0.0,32,0.00,,---,0.00,VWS V14.01,2013-12-27 09:05:00,
2013-12-27 02:06:00,41.2,13.6,30.06,WSW,250,0.0,0.0,32,0.00,,---,0.00,VWS V14.01,2013-12-27 09:06:00,
2013-12-27 02:08:00,41.2,13.6,30.06,WNW,301,3.1,3.1,32,0.00,,---,0.00,VWS V14.01,2013-12-27 09:08:00,
2013-12-27 02:09:00,41.0,13.4,30.06,WNW,301,2.7,3.1,32,0.00,,---,0.00,VWS V14.01,2013-12-27 09:09:00,
2013-12-27 02:11:00,41.0,13.4,30.06,WNW,301,0.0,2.2,32,0.00,,---,0.00,VWS V14.01,2013-12-27 09:11:00,
2013-12-27 02:14:00,40.8,14.0,30.06,WNW,296,0.0,0.0,33,0.00,,---,0.00,VWS V14.01,2013-12-27 09:14:00,
2013-12-27 02:15:00,40.1,15.3,30.06,SSW,198,2.2,2.2,36,0.00,,,0.00,VWS V15.00,2013-12-27 09:15:00,
2013-12-27 02:16:00,40.8,14.0,30.06,NW,308,2.7,3.6,33,0.00,,---,0.00,VWS V14.01,2013-12-27 09:16:00,
2013-12-27 02:19:00,40.8,14.0,30.06,NW,322,0.0,0.0,33,0.00,,---,0.00,VWS V14.01,2013-12-27 09:19:00,
2013-12-27 02:21:00,41.0,13.4,30.06,NW,325,0.0,0.0,32,0.00,,---,0.00,VWS V14.01,2013-12-27 09:21:00,
2013-12-27 02:24:00,41.2,13.6,30.06,ENE,78,0.0,0.0,32,0.00,,---,0.00,VWS V14.01,2013-12-27 09:24:00,
2013-12-27 02:25:00,41.2,13.6,30.06,ENE,78,0.0,0.0,32,0.00,,---,0.00,VWS V14.01,2013-12-27 09:25:00,
2013-12-27 02:26:00,41.0,13.4,30.06,ENE,78,0.0,0.0,32,0.00,,---,0.00,VWS V14.01,2013-12-27 09:26:00,
2013-12-27 02:27:00,40.8,14.0,30.06,ENE,78,0.0,0.0,33,0.00,,---,0.00,VWS V14.01,2013-12-27 09:27:00,
2013-12-27 02:29:00,40.6,13.8,30.06,ESE,119,0.0,0.0,33,0.00,,---,0.00,VWS V14.01,2013-12-27 09:29:00,
2013-12-27 02:30:00,40.6,13.8,30.06,ESE,119,0.0,0.0,33,0.00,,---,0.00,VWS V14.01,2013-12-27 09:30:00,
2013-12-27 02:31:00,40.5,13.6,30.06,ESE,119,0.0,0.0,33,0.00,,---,0.00,VWS V14.01,2013-12-27 09:31:00,
2013-12-27 02:32:00,40.3,13.5,30.06,ESE,119,0.0,0.0,33,0.00,,---,0.00,VWS V14.01,2013-12-27 09:32:00,
2013-12-27 02:33:00,40.3,13.5,30.06,ESE,119,0.0,0.0,33,0.00,,---,0.00,VWS V14.01,2013-12-27 09:33:00,
2013-12-27 02:34:00,40.3,13.5,30.06,ESE,119,0.0,0.0,33,0.00,,---,0.00,VWS V14.01,2013-12-27 09:34:00,
2013-12-27 02:35:00,40.1,13.3,30.06,ESE,119,0.0,0.0,33,0.00,,---,0.00,VWS V14.01,2013-12-27 09:35:00,
2013-12-27 02:36:00,40.1,13.3,30.06,ESE,119,0.0,0.0,33,0.00,,---,0.00,VWS V14.01,2013-12-27 09:36:00,
2013-12-27 02:37:00,40.1,13.3,30.06,ESE,119,0.0,0.0,33,0.00,,---,0.00,VWS V14.01,2013-12-27 09:37:00,
2013-12-27 02:38:00,40.1,13.3,30.06,ESE,119,0.0,0.0,33,0.00,,---,0.00,VWS V14.01,2013-12-27 09:38:00,
2013-12-27 02:39:00,39.9,13.8,30.06,ESE,119,0.0,0.0,34,0.00,,---,0.00,VWS V14.01,2013-12-27 09:39:00,
2013-12-27 02:40:00,39.9,13.8,30.06,ESE,119,0.0,0.0,34,0.00,,---,0.00,VWS V14.01,2013-12-27 09:40:00,
2013-12-27 02:41:00,39.9,13.8,30.06,ESE,119,0.0,0.0,34,0.00,,---,0.00,VWS V14.01,2013-12-27 09:41:00,
2013-12-27 02:42:00,39.9,13.8,30.06,ESE,119,0.0,0.0,34,0.00,,---,0.00,VWS V14.01,2013-12-27 09:42:00,
2013-12-27 02:43:00,39.9,13.8,30.06,ESE,119,0.0,0.0,34,0.00,,---,0.00,VWS V14.01,2013-12-27 09:43:00,
2013-12-27 02:44:00,39.7,13.7,30.06,SSE,155,0.0,0.0,34,0.00,,---,0.00,VWS V14.01,2013-12-27 09:44:00,
2013-12-27 02:45:00,39.7,14.3,30.06,SSE,155,0.0,0.0,35,0.00,,---,0.00,VWS V14.01,2013-12-27 09:45:00,
2013-12-27 02:46:00,39.6,14.2,30.06,South,170,0.0,0.0,35,0.00,,---,0.00,VWS V14.01,2013-12-27 09:46:00,
2013-12-27 02:47:00,39.6,14.8,30.06,South,180,0.0,0.0,36,0.00,,---,0.00,VWS V14.01,2013-12-27 09:47:00,
2013-12-27 02:48:00,39.6,14.8,30.06,South,185,0.0,0.0,36,0.00,,---,0.00,VWS V14.01,2013-12-27 09:48:00,
2013-12-27 02:49:00,39.4,14.7,30.06,South,185,0.0,0.0,36,0.00,,---,0.00,VWS V14.01,2013-12-27 09:49:00,
2013-12-27 02:50:00,39.4,14.7,30.06,South,185,0.0,0.0,36,0.00,,---,0.00,VWS V14.01,2013-12-27 09:50:00,
2013-12-27 02:52:00,39.4,14.7,30.06,South,185,0.0,0.0,36,0.00,,---,0.00,VWS V14.01,2013-12-27 09:52:00,
2013-12-27 02:53:00,39.4,14.7,30.06,South,185,0.0,0.0,36,0.00,,---,0.00,VWS V14.01,2013-12-27 09:53:00,
2013-12-27 02:54:00,39.4,14.7,30.06,South,185,0.0,0.0,36,0.00,,---,0.00,VWS V14.01,2013-12-27 09:54:00,
2013-12-27 02:55:00,39.4,14.7,30.06,South,185,0.0,0.0,36,0.00,,---,0.00,VWS V14.01,2013-12-27 09:55:00,
2013-12-27 02:57:00,39.4,14.7,30.06,South,185,0.0,0.0,36,0.00,,---,0.00,VWS V14.01,2013-12-27 09:57:00,
2013-12-27 02:58:00,39.4,14.7,30.06,South,189,3.6,3.6,36,0.00,,---,0.00,VWS V14.01,2013-12-27 09:58:00,
2013-12-27 02:59:00,39.6,14.8,30.06,South,190,0.0,0.0,36,0.00,,---,0.00,VWS V14.01,2013-12-27 09:59:00,
2013-12-27 03:00:00,39.0,15.6,30.06,West,266,3.1,3.6,38,0.00,,,0.00,VWS V15.00,2013-12-27 10:00:00,
2013-12-27 03:01:00,39.6,14.8,30.06,South,190,0.0,0.0,36,0.00,,---,0.00,VWS V14.01,2013-12-27 10:01:00,
2013-12-27 03:02:00,39.7,15.0,30.06,South,190,0.0,0.0,36,0.00,,---,0.00,VWS V14.01,2013-12-27 10:02:00,
2013-12-27 03:03:00,39.6,14.8,30.06,South,190,0.0,0.0,36,0.00,,---,0.00,VWS V14.01,2013-12-27 10:03:00,
2013-12-27 03:05:00,39.6,14.8,30.06,South,190,0.0,0.0,36,0.00,,---,0.00,VWS V14.01,2013-12-27 10:05:00,
2013-12-27 03:06:00,39.6,14.8,30.06,South,190,0.0,0.0,36,0.00,,---,0.00,VWS V14.01,2013-12-27 10:06:00,
2013-12-27 03:07:00,39.4,14.7,30.06,South,190,0.0,0.0,36,0.00,,---,0.00,VWS V14.01,2013-12-27 10:07:00,
2013-12-27 03:08:00,39.4,14.0,30.06,South,190,0.0,0.0,35,0.00,,---,0.00,VWS V14.01,2013-12-27 10:08:00,
2013-12-27 03:09:00,39.4,14.0,30.06,South,190,0.0,0.0,35,0.00,,---,0.00,VWS V14.01,2013-12-27 10:09:00,
2013-12-27 03:10:00,39.6,14.2,30.06,South,190,0.0,0.0,35,0.00,,---,0.00,VWS V14.01,2013-12-27 10:10:00,
2013-12-27 03:11:00,39.6,14.2,30.06,South,190,0.0,0.0,35,0.00,,---,0.00,VWS V14.01,2013-12-27 10:11:00,
2013-12-27 03:12:00,39.7,14.3,30.06,South,190,0.0,0.0,35,0.00,,---,0.00,VWS V14.01,2013-12-27 10:12:00,
2013-12-27 03:13:00,39.9,14.5,30.06,South,190,0.0,0.0,35,0.00,,---,0.00,VWS V14.01,2013-12-27 10:13:00,
2013-12-27 03:14:00,40.1,15.3,30.06,SSW,198,3.1,3.1,36,0.00,,---,0.00,VWS V14.01,2013-12-27 10:14:00,
2013-12-27 03:15:00,37.6,14.9,30.06,SSW,202,4.0,4.9,39,0.00,,,0.00,VWS V15.00,2013-12-27 10:15:00,
2013-12-27 03:16:00,40.3,15.5,30.06,SSW,198,2.2,2.2,36,0.00,,---,0.00,VWS V14.01,2013-12-27 10:16:00,
2013-12-27 03:17:00,40.1,14.7,30.06,SSW,198,0.0,0.0,35,0.00,,---,0.00,VWS V14.01,2013-12-27 10:17:00,
2013-12-27 03:18:00,39.9,14.5,30.06,SSW,198,0.0,0.0,35,0.00,,---,0.00,VWS V14.01,2013-12-27 10:18:00,
2013-12-27 03:20:00,39.9,14.5,30.06,SSW,198,0.0,0.0,35,0.00,,---,0.00,VWS V14.01,2013-12-27 10:20:00,
2013-12-27 03:21:00,39.7,14.3,30.06,SSW,198,0.0,0.0,35,0.00,,---,0.00,VWS V14.01,2013-12-27 10:21:00,
2013-12-27 03:22:00,39.7,14.3,30.06,SSW,198,0.0,0.0,35,0.00,,---,0.00,VWS V14.01,2013-12-27 10:22:00,
2013-12-27 03:24:00,39.4,14.7,30.06,SSW,198,0.0,0.0,36,0.00,,---,0.00,VWS V14.01,2013-12-27 10:24:00,
2013-12-27 03:25:00,39.4,14.7,30.06,SSW,198,0.0,0.0,36,0.00,,---,0.00,VWS V14.01,2013-12-27 10:25:00,
2013-12-27 03:26:00,39.2,14.5,30.06,SSW,198,0.0,0.0,36,0.00,,---,0.00,VWS V14.01,2013-12-27 10:26:00,
2013-12-27 03:27:00,39.2,14.5,30.06,SSW,198,0.0,0.0,36,0.00,,---,0.00,VWS V14.01,2013-12-27 10:27:00,
2013-12-27 03:28:00,39.2,14.5,30.06,SSW,198,0.0,0.0,36,0.00,,---,0.00,VWS V14.01,2013-12-27 10:28:00,
2013-12-27 03:30:00,39.4,14.7,30.06,South,191,4.5,4.5,36,0.00,,---,0.00,VWS V14.01,2013-12-27 10:30:00,
2013-12-27 03:31:00,39.6,14.8,30.06,SSW,192,0.0,2.2,36,0.00,,---,0.00,VWS V14.01,2013-12-27 10:31:00,
2013-12-27 03:32:00,39.6,14.8,30.06,SSW,192,0.0,0.0,36,0.00,,---,0.00,VWS V14.01,2013-12-27 10:32:00,
2013-12-27 03:33:00,39.6,14.8,30.06,SSW,192,0.0,0.0,36,0.00,,---,0.00,VWS V14.01,2013-12-27 10:33:00,
2013-12-27 03:35:00,39.6,14.8,30.06,SSW,192,0.0,0.0,36,0.00,,---,0.00,VWS V14.01,2013-12-27 10:35:00,
2013-12-27 03:36:00,39.6,14.8,30.06,South,191,0.0,0.0,36,0.00,,---,0.00,VWS V14.01,2013-12-27 10:36:00,
2013-12-27 03:37:00,39.6,14.8,30.06,South,191,0.0,0.0,36,0.00,,---,0.00,VWS V14.01,2013-12-27 10:37:00,
2013-12-27 03:38:00,39.4,14.7,30.06,South,186,0.0,0.0,36,0.00,,---,0.00,VWS V14.01,2013-12-27 10:38:00,
2013-12-27 03:40:00,39.2,14.5,30.06,South,191,3.6,3.6,36,0.00,,---,0.00,VWS V14.01,2013-12-27 10:40:00,
2013-12-27 03:41:00,39.2,15.1,30.06,South,191,3.1,3.1,37,0.00,,---,0.00,VWS V14.01,2013-12-27 10:41:00,
2013-12-27 03:42:00,39.0,15.0,30.06,South,189,0.0,0.0,37,0.00,,---,0.00,VWS V14.01,2013-12-27 10:42:00,
2013-12-27 03:43:00,39.0,15.0,30.06,South,189,0.0,0.0,37,0.00,,---,0.00,VWS V14.01,2013-12-27 10:43:00,
2013-12-27 03:45:00,39.7,15.0,30.06,WSW,254,0.0,0.0,36,0.00,,,0.00,VWS V15.00,2013-12-27 10:45:00,
2013-12-27 03:46:00,38.8,15.4,30.06,South,190,0.0,0.0,38,0.00,,---,0.00,VWS V14.01,2013-12-27 10:46:00,
2013-12-27 03:47:00,38.7,15.3,30.06,South,190,0.0,0.0,38,0.00,,---,0.00,VWS V14.01,2013-12-27 10:47:00,
2013-12-27 03:48:00,38.7,15.3,30.06,South,190,0.0,0.0,38,0.00,,---,0.00,VWS V14.01,2013-12-27 10:48:00,
2013-12-27 03:51:00,38.7,15.3,30.06,South,190,0.0,0.0,38,0.00,,---,0.00,VWS V14.01,2013-12-27 10:51:00,
2013-12-27 03:52:00,38.7,15.3,30.06,South,190,0.0,0.0,38,0.00,,---,0.00,VWS V14.01,2013-12-27 10:52:00,
2013-12-27 03:53:00,38.7,15.3,30.06,South,190,0.0,0.0,38,0.00,,---,0.00,VWS V14.01,2013-12-27 10:53:00,
2013-12-27 03:56:00,39.0,15.6,30.06,SW,216,0.0,0.0,38,0.00,,---,0.00,VWS V14.01,2013-12-27 10:56:00,
2013-12-27 03:57:00,39.0,15.6,30.06,SW,216,0.0,0.0,38,0.00,,---,0.00,VWS V14.01,2013-12-27 10:57:00,
2013-12-27 03:58:00,39.0,15.6,30.06,SW,216,0.0,0.0,38,0.00,,---,0.00,VWS V14.01,2013-12-27 10:58:00,
2013-12-27 04:00:00,39.7,14.3,30.06,SSW,197,4.9,5.4,35,0.00,,,0.00,VWS V15.00,2013-12-27 11:00:00,
2013-12-27 04:01:00,39.0,15.6,30.06,West,266,0.0,0.0,38,0.00,,---,0.00,VWS V14.01,2013-12-27 11:01:00,
2013-12-27 04:02:00,39.0,15.6,30.06,West,266,0.0,0.0,38,0.00,,---,0.00,VWS V14.01,2013-12-27 11:02:00,
2013-12-27 04:03:00,38.8,15.4,30.06,West,266,0.0,0.0,38,0.00,,---,0.00,VWS V14.01,2013-12-27 11:03:00,
2013-12-27 04:04:00,38.8,15.4,30.06,West,266,0.0,0.0,38,0.00,,---,0.00,VWS V14.01,2013-12-27 11:04:00,
2013-12-27 04:06:00,38.8,15.4,30.06,South,176,0.0,0.0,38,0.00,,---,0.00,VWS V14.01,2013-12-27 11:06:00,
2013-12-27 04:07:00,38.8,15.4,30.06,South,176,0.0,0.0,38,0.00,,---,0.00,VWS V14.01,2013-12-27 11:07:00,
2013-12-27 04:08:00,38.8,15.4,30.06,SE,145,0.0,0.0,38,0.00,,---,0.00,VWS V14.01,2013-12-27 11:08:00,
2013-12-27 04:09:00,38.7,15.3,30.06,SE,139,3.1,3.1,38,0.00,,---,0.00,VWS V14.01,2013-12-27 11:09:00,
2013-12-27 04:12:00,38.3,14.9,30.06,SE,144,0.0,0.0,38,0.00,,---,0.00,VWS V14.01,2013-12-27 11:12:00,
2013-12-27 04:13:00,37.9,15.2,30.06,SSW,196,3.6,3.6,39,0.00,,---,0.00,VWS V14.01,2013-12-27 11:13:00,
2013-12-27 04:14:00,37.9,15.2,30.06,SSW,198,3.6,3.6,39,0.00,,---,0.00,VWS V14.01,2013-12-27 11:14:00,
2013-12-27 04:15:00,39.4,14.0,30.06,SSW,199,5.8,5.8,35,0.00,,,0.00,VWS V15.00,2013-12-27 11:15:00,
2013-12-27 04:17:00,37.6,15.5,30.06,SSW,197,4.0,4.0,40,0.00,,---,0.00,VWS V14.01,2013-12-27 11:17:00,
2013-12-27 04:18:00,37.6,15.5,30.06,SSW,197,3.1,3.6,40,0.00,,---,0.00,VWS V14.01,2013-12-27 11:18:00,
2013-12-27 04:19:00,37.8,15.6,30.06,SSW,197,2.7,2.7,40,0.00,,---,0.00,VWS V14.01,2013-12-27 11:19:00,
2013-12-27 04:22:00,37.8,15.6,30.06,SSW,196,3.6,3.6,40,0.00,,---,0.00,VWS V14.01,2013-12-27 11:22:00,
2013-12-27 04:23:00,37.8,15.6,30.06,SSW,192,2.2,4.0,40,0.00,,---,0.00,VWS V14.01,2013-12-27 11:23:00,
2013-12-27 04:24:00,37.9,15.2,30.06,SSW,192,2.7,4.0,39,0.00,,---,0.00,VWS V14.01,2013-12-27 11:24:00,
2013-12-27 04:27:00,38.3,15.5,30.06,SSW,194,4.0,4.0,39,0.00,,---,0.00,VWS V14.01,2013-12-27 11:27:00,
2013-12-27 04:28:00,38.5,15.7,30.06,SSW,194,3.1,4.0,39,0.00,,---,0.00,VWS V14.01,2013-12-27 11:28:00,
2013-12-27 04:29:00,38.7,15.9,30.06,SSW,193,2.7,3.1,39,0.00,,---,0.00,VWS V14.01,2013-12-27 11:29:00,
2013-12-27 04:30:00,40.1,14.0,30.03,South,189,3.1,3.6,34,0.00,,,0.00,VWS V15.00,2013-12-27 11:30:00,
2013-12-27 04:32:00,39.0,16.2,30.06,SSW,204,3.6,3.6,39,0.00,,---,0.00,VWS V14.01,2013-12-27 11:32:00,
2013-12-27 04:33:00,39.0,16.2,30.06,SSW,204,2.7,3.6,39,0.00,,---,0.00,VWS V14.01,2013-12-27 11:33:00,
2013-12-27 04:34:00,39.2,15.7,30.06,SSW,203,3.1,3.6,38,0.00,,---,0.00,VWS V14.01,2013-12-27 11:34:00,
2013-12-27 04:35:00,39.2,15.7,30.06,SSW,203,3.1,3.1,38,0.00,,---,0.00,VWS V14.01,2013-12-27 11:35:00,
2013-12-27 04:37:00,39.7,15.6,30.06,South,184,2.7,2.7,37,0.00,,---,0.00,VWS V14.01,2013-12-27 11:37:00,
2013-12-27 04:38:00,39.7,15.6,30.06,South,184,2.7,2.7,37,0.00,,---,0.00,VWS V14.01,2013-12-27 11:38:00,
2013-12-27 04:39:00,39.9,15.8,30.06,SSW,202,4.0,4.5,37,0.00,,---,0.00,VWS V14.01,2013-12-27 11:39:00,
2013-12-27 04:40:00,39.9,15.8,30.06,SW,226,3.1,3.6,37,0.00,,---,0.00,VWS V14.01,2013-12-27 11:40:00,
2013-12-27 04:43:00,39.9,15.8,30.06,WSW,254,0.0,0.0,37,0.00,,---,0.00,VWS V14.01,2013-12-27 11:43:00,
2013-12-27 04:44:00,39.7,15.0,30.06,WSW,254,0.0,0.0,36,0.00,,---,0.00,VWS V14.01,2013-12-27 11:44:00,
2013-12-27 04:45:00,39.7,15.0,30.06,WSW,253,0.0,0.0,36,0.00,,---,0.00,VWS V14.01,2013-12-27 11:45:00,
2013-12-27 04:48:00,39.6,14.8,30.06,South,184,0.0,0.0,36,0.00,,---,0.00,VWS V14.01,2013-12-27 11:48:00,
2013-12-27 04:49:00,39.4,14.7,30.06,South,189,2.2,3.1,36,0.00,,---,0.00,VWS V14.01,2013-12-27 11:49:00,
2013-12-27 04:51:00,39.4,14.7,30.06,South,189,2.2,2.7,36,0.00,,---,0.00,VWS V14.01,2013-12-27 11:51:00,
2013-12-27 04:53:00,39.2,14.5,30.06,SSW,193,3.6,3.6,36,0.00,,---,0.00,VWS V14.01,2013-12-27 11:53:00,
2013-12-27 04:54:00,39.2,14.5,30.06,SSW,195,2.7,2.7,36,0.00,,---,0.00,VWS V14.01,2013-12-27 11:54:00,
2013-12-27 04:56:00,39.2,14.5,30.06,SSW,195,3.1,3.1,36,0.00,,---,0.00,VWS V14.01,2013-12-27 11:56:00,
2013-12-27 04:58:00,39.4,14.7,30.06,SSW,195,3.6,4.0,36,0.00,,---,0.00,VWS V14.01,2013-12-27 11:58:00,
2013-12-27 04:59:00,39.4,14.7,30.06,SSW,196,4.9,4.9,36,0.00,,---,0.00,VWS V14.01,2013-12-27 11:59:00,
2013-12-27 05:00:00,39.7,14.3,30.06,SSW,197,4.9,5.4,35,0.00,,---,0.00,VWS V14.01,2013-12-27 12:00:00,
2013-12-27 05:01:00,39.9,14.5,30.06,South,190,5.4,5.4,35,0.00,,---,0.00,VWS V14.01,2013-12-27 12:01:00,
2013-12-27 05:03:00,40.3,14.2,30.06,SSW,196,3.6,4.0,34,0.00,,---,0.00,VWS V14.01,2013-12-27 12:03:00,
2013-12-27 05:04:00,40.3,14.2,30.06,SSW,196,3.1,3.6,34,0.00,,---,0.00,VWS V14.01,2013-12-27 12:04:00,
2013-12-27 05:05:00,40.5,14.3,30.06,South,190,2.7,3.1,34,0.00,,---,0.00,VWS V14.01,2013-12-27 12:05:00,
2013-12-27 05:06:00,40.5,15.0,30.06,South,190,0.0,2.2,35,0.00,,---,0.00,VWS V14.01,2013-12-27 12:06:00,
2013-12-27 05:08:00,40.3,14.8,30.06,SSW,196,4.0,4.0,35,0.00,,---,0.00,VWS V14.01,2013-12-27 12:08:00,
2013-12-27 05:09:00,40.1,14.7,30.06,SSW,195,4.0,4.0,35,0.00,,---,0.00,VWS V14.01,2013-12-27 12:09:00,
2013-12-27 05:10:00,39.9,14.5,30.06,SSW,195,4.9,4.9,35,0.00,,---,0.00,VWS V14.01,2013-12-27 12:10:00,
2013-12-27 05:11:00,39.9,14.5,30.06,SSW,194,3.1,3.1,35,0.00,,---,0.00,VWS V14.01,2013-12-27 12:11:00,
2013-12-27 05:14:00,39.7,14.3,30.06,South,190,3.6,3.6,35,0.00,,---,0.00,VWS V14.01,2013-12-27 12:14:00,
2013-12-27 05:15:00,39.4,14.0,30.06,South,191,4.9,5.8,35,0.00,,---,0.00,VWS V14.01,2013-12-27 12:15:00,
2013-12-27 05:16:00,39.4,14.0,30.06,SSW,194,4.0,5.4,35,0.00,,---,0.00,VWS V14.01,2013-12-27 12:16:00,
2013-12-27 05:19:00,39.4,14.0,30.03,SSW,192,4.0,4.0,35,0.00,,---,0.00,VWS V14.01,2013-12-27 12:19:00,
2013-12-27 05:20:00,39.4,14.0,30.03,SSW,193,5.8,5.8,35,0.00,,---,0.00,VWS V14.01,2013-12-27 12:20:00,
2013-12-27 05:21:00,39.4,14.0,30.03,SSW,200,5.8,5.8,35,0.00,,---,0.00,VWS V14.01,2013-12-27 12:21:00,
2013-12-27 05:24:00,39.4,13.4,30.03,SSW,195,6.3,6.3,34,0.00,,---,0.00,VWS V14.01,2013-12-27 12:24:00,
2013-12-27 05:25:00,39.6,13.5,30.03,SSW,197,4.9,6.3,34,0.00,,---,0.00,VWS V14.01,2013-12-27 12:25:00,
2013-12-27 05:26:00,39.7,13.7,30.03,SSW,207,5.4,5.8,34,0.00,,---,0.00,VWS V14.01,2013-12-27 12:26:00,
2013-12-27 05:27:00,39.9,13.8,30.03,SSW,197,4.0,4.0,34,0.00,,---,0.00,VWS V14.01,2013-12-27 12:27:00,
2013-12-27 05:29:00,40.1,14.0,30.03,South,190,4.0,4.0,34,0.00,,---,0.00,VWS V14.01,2013-12-27 12:29:00,
2013-12-27 05:30:00,40.1,14.0,30.03,South,189,3.6,3.6,34,0.00,,---,0.00,VWS V14.01,2013-12-27 12:30:00,
2013-12-27 05:31:00,40.3,14.2,30.03,South,189,2.7,3.6,34,0.00,,---,0.00,VWS V14.01,2013-12-27 12:31:00,
2013-12-27 05:32:00,40.3,14.2,30.03,South,189,2.7,2.7,34,0.00,,---,0.00,VWS V14.01,2013-12-27 12:32:00,
2013-12-27 05:34:00,40.3,14.2,30.03,South,189,3.6,3.6,34,0.00,,---,0.00,VWS V14.01,2013-12-27 12:34:00,
2013-12-27 05:36:00,40.1,14.0,30.03,SSW,203,4.0,4.0,34,0.00,,---,0.00,VWS V14.01,2013-12-27 12:36:00,
2013-12-27 05:37:00,40.1,14.0,30.03,SSW,203,3.6,4.0,34,0.00,,---,0.00,VWS V14.01,2013-12-27 12:37:00,
2013-12-27 05:39:00,40.1,13.3,30.03,SSW,192,4.0,4.0,33,0.00,,---,0.00,VWS V14.01,2013-12-27 12:39:00,
2013-12-27 05:41:00,40.3,13.5,30.03,South,189,4.0,4.0,33,0.00,,---,0.00,VWS V14.01,2013-12-27 12:41:00,
2013-12-27 05:42:00,40.3,13.5,30.03,South,189,4.0,4.0,33,0.00,,---,0.00,VWS V14.01,2013-12-27 12:42:00,
2013-12-27 05:44:00,40.3,13.5,30.03,South,188,2.7,2.7,33,0.00,,---,0.00,VWS V14.01,2013-12-27 12:44:00,
2013-12-27 05:45:00,40.3,13.5,30.03,South,188,3.1,3.6,33,0.00,,---,0.00,VWS V14.01,2013-12-27 12:45:00,
2013-12-27 05:47:00,39.9,13.2,30.03,South,183,2.7,2.7,33,0.00,,---,0.00,VWS V14.01,2013-12-27 12:47:00,
2013-12-27 05:49:00,39.4,13.4,30.06,South,187,2.7,3.1,34,0.00,,---,0.00,VWS V14.01,2013-12-27 12:49:00,
2013-12-27 05:50:00,39.4,13.4,30.06,SSW,192,3.1,3.1,34,0.00,,---,0.00,VWS V14.01,2013-12-27 12:50:00,
2013-12-27 05:52:00,38.8,13.5,30.06,SSW,200,4.0,4.0,35,0.00,,---,0.00,VWS V14.01,2013-12-27 12:52:00,
2013-12-27 05:53:00,38.7,13.4,30.06,SSW,203,5.4,5.4,35,0.00,,---,0.00,VWS V14.01,2013-12-27 12:53:00,
2013-12-27 05:54:00,38.5,13.2,30.06,SSW,198,7.6,7.6,35,0.00,,---,0.00,VWS V14.01,2013-12-27 12:54:00,
2013-12-27 05:55:00,38.5,13.2,30.06,SSW,199,6.3,6.3,35,0.00,,---,0.00,VWS V14.01,2013-12-27 12:55:00,
2013-12-27 05:57:00,38.7,13.4,30.06,SSW,196,5.4,5.8,35,0.00,,---,0.00,VWS V14.01,2013-12-27 12:57:00,
2013-12-27 05:58:00,38.7,13.4,30.06,SSW,193,4.0,5.4,35,0.00,,---,0.00,VWS V14.01,2013-12-27 12:58:00,
2013-12-27 06:00:00,38.7,12.7,30.06,SSW,197,5.4,6.3,34,0.00,,---,0.00,VWS V14.01,2013-12-27 13:00:00,
2013-12-27 06:02:00,38.8,12.9,30.06,SSW,209,4.0,4.0,34,0.00,,---,0.00,VWS V14.01,2013-12-27 13:02:00,
2013-12-27 06:03:00,38.8,12.9,30.06,SSW,209,4.0,4.0,34,0.00,,---,0.00,VWS V14.01,2013-12-27 13:03:00,
2013-12-27 06:05:00,38.8,12.9,30.06,SSW,198,5.4,5.4,34,0.00,,---,0.00,VWS V14.01,2013-12-27 13:05:00,
2013-12-27 06:08:00,39.4,12.7,30.06,SSW,196,4.5,4.5,33,0.00,,---,0.00,VWS V14.01,2013-12-27 13:08:00,
2013-12-27 06:10:00,39.7,13.0,30.06,SSW,197,4.0,4.0,33,0.00,,---,0.00,VWS V14.01,2013-12-27 13:10:00,
2013-12-27 06:13:00,39.7,13.0,30.06,SSW,195,4.0,4.0,33,0.00,,---,0.00,VWS V14.01,2013-12-27 13:13:00,
2013-12-27 06:15:00,39.6,12.9,30.06,SSW,196,3.6,4.0,33,0.00,,---,0.00,VWS V14.01,2013-12-27 13:15:00,
2013-12-27 06:18:00,39.4,12.7,30.06,SSW,194,3.6,4.0,33,0.00,,---,0.00,VWS V14.01,2013-12-27 13:18:00,
2013-12-27 06:20:00,39.2,12.5,30.06,SSW,193,3.1,3.6,33,0.00,,---,0.00,VWS V14.01,2013-12-27 13:20:00,
2013-12-27 06:23:00,38.7,12.1,30.06,SSW,197,3.1,4.0,33,0.00,,---,0.00,VWS V14.01,2013-12-27 13:23:00,
2013-12-27 06:24:00,38.7,12.1,30.06,SSW,197,2.7,3.1,33,0.00,,---,0.00,VWS V14.01,2013-12-27 13:24:00,
2013-12-27 06:25:00,38.5,11.9,30.06,SSW,197,0.0,3.6,33,0.00,,---,0.00,VWS V14.01,2013-12-27 13:25:00,
2013-12-27 06:29:00,38.5,11.9,30.06,SSW,197,3.1,3.1,33,0.00,,---,0.00,VWS V14.01,2013-12-27 13:29:00,
2013-12-27 06:30:00,38.5,11.9,30.06,SSW,197,2.2,2.7,33,0.00,,---,0.00,VWS V14.01,2013-12-27 13:30:00,
2013-12-27 06:31:00,38.5,11.9,30.06,SSW,196,2.7,2.7,33,0.00,,---,0.00,VWS V14.01,2013-12-27 13:31:00,
2013-12-27 06:34:00,38.3,11.7,30.06,SSW,196,2.7,2.7,33,0.00,,---,0.00,VWS V14.01,2013-12-27 13:34:00,
2013-12-27 06:35:00,38.1,11.6,30.06,SSW,196,2.7,2.7,33,0.00,,---,0.00,VWS V14.01,2013-12-27 13:35:00,
2013-12-27 06:36:00,38.1,11.6,30.06,SSW,196,3.1,3.1,33,0.00,,---,0.00,VWS V14.01,2013-12-27 13:36:00,
2013-12-27 06:39:00,38.1,11.6,30.06,SSW,197,4.9,4.9,33,0.00,,---,0.00,VWS V14.01,2013-12-27 13:39:00,
2013-12-27 06:40:00,38.3,11.0,30.06,SSW,205,2.7,4.0,32,0.00,,---,0.00,VWS V14.01,2013-12-27 13:40:00,
2013-12-27 06:41:00,38.8,11.5,30.06,SSW,206,0.0,0.0,32,0.00,,---,0.00,VWS V14.01,2013-12-27 13:41:00,
2013-12-27 06:44:00,39.2,11.8,30.06,South,188,0.0,0.0,32,0.00,,---,0.00,VWS V14.01,2013-12-27 13:44:00,
2013-12-27 06:45:00,39.2,11.8,30.06,South,188,2.7,2.7,32,0.00,,---,0.00,VWS V14.01,2013-12-27 13:45:00,
2013-12-27 06:46:00,39.2,11.1,30.06,SSW,193,3.6,3.6,31,0.00,,---,0.00,VWS V14.01,2013-12-27 13:46:00,
2013-12-27 06:49:00,40.1,11.9,30.06,SSW,212,4.0,4.9,31,0.00,,---,0.00,VWS V14.01,2013-12-27 13:49:00,
2013-12-27 06:50:00,40.1,11.9,30.06,SSW,192,3.6,4.0,31,0.00,,---,0.00,VWS V14.01,2013-12-27 13:50:00,
2013-12-27 06:51:00,40.8,11.8,30.06,SSW,203,3.6,3.6,30,0.00,,---,0.00,VWS V14.01,2013-12-27 13:51:00,
2013-12-27 06:54:00,42.3,12.3,30.06,SSW,206,5.4,5.4,29,0.00,,---,0.00,VWS V14.01,2013-12-27 13:54:00,
2013-12-27 06:55:00,42.8,12.8,30.06,SSW,212,5.8,5.8,29,0.00,,---,0.00,VWS V14.01,2013-12-27 13:55:00,
2013-12-27 06:56:00,43.3,13.2,30.06,SSW,208,5.8,8.3,29,0.00,,---,0.00,VWS V14.01,2013-12-27 13:56:00,
2013-12-27 07:00:00,44.6,13.5,30.06,WSW,240,5.4,5.4,28,0.00,,---,0.00,VWS V14.01,2013-12-27 14:00:00,
2013-12-27 07:01:00,44.8,13.7,30.06,SSW,203,8.7,8.7,28,0.00,,---,0.00,VWS V14.01,2013-12-27 14:01:00,
2013-12-27 07:02:00,45.1,14.0,30.06,SSW,213,5.8,6.3,28,0.00,,---,0.00,VWS V14.01,2013-12-27 14:02:00,
2013-12-27 07:05:00,45.5,13.5,30.06,SW,218,5.8,5.8,27,0.00,,---,0.00,VWS V14.01,2013-12-27 14:05:00,
2013-12-27 07:06:00,45.9,13.8,30.06,SSW,213,8.1,8.1,27,0.00,,---,0.00,VWS V14.01,2013-12-27 14:06:00,
2013-12-27 07:07:00,45.9,13.8,30.06,SW,231,4.5,5.8,27,0.00,,---,0.00,VWS V14.01,2013-12-27 14:07:00,
2013-12-27 07:10:00,46.2,12.4,30.06,SW,222,6.3,8.1,25,0.00,,---,0.00,VWS V14.01,2013-12-27 14:10:00,
2013-12-27 07:11:00,46.2,12.4,30.06,SW,218,5.4,6.3,25,0.00,,---,0.00,VWS V14.01,2013-12-27 14:11:00,
2013-12-27 07:12:00,46.2,12.4,30.06,SW,229,5.8,5.8,25,0.00,,---,0.00,VWS V14.01,2013-12-27 14:12:00,
2013-12-27 07:15:00,46.4,11.6,30.06,SSW,204,6.3,6.3,24,0.00,,---,0.00,VWS V14.01,2013-12-27 14:15:00,
2013-12-27 07:16:00,46.4,11.6,30.06,SSW,210,8.3,8.3,24,0.00,,---,0.00,VWS V14.01,2013-12-27 14:16:00,
2013-12-27 07:17:00,46.4,11.6,30.06,SSW,209,8.7,8.7,24,0.00,,---,0.00,VWS V14.01,2013-12-27 14:17:00,
2013-12-27 07:20:00,46.4,11.6,30.06,SSW,209,6.3,7.2,24,0.00,,---,0.00,VWS V14.01,2013-12-27 14:20:00,
2013-12-27 07:21:00,46.4,11.6,30.06,SSW,209,5.4,6.3,24,0.00,,---,0.00,VWS V14.01,2013-12-27 14:21:00,
2013-12-27 07:22:00,46.4,11.6,30.06,SSW,201,7.2,7.2,24,0.00,,---,0.00,VWS V14.01,2013-12-27 14:22:00,
2013-12-27 07:25:00,46.4,9.6,30.06,SW,215,7.6,7.6,22,0.00,,---,0.00,VWS V14.01,2013-12-27 14:25:00,
2013-12-27 07:26:00,46.4,9.6,30.06,SSW,206,7.6,8.1,22,0.00,,---,0.00,VWS V14.01,2013-12-27 14:26:00,
2013-12-27 07:27:00,46.4,9.6,30.06,SSW,192,7.6,7.6,22,0.00,,---,0.00,VWS V14.01,2013-12-27 14:27:00,
2013-12-27 07:30:00,46.4,9.6,30.06,SSW,205,8.1,8.1,22,0.00,,---,0.00,VWS V14.01,2013-12-27 14:30:00,
2013-12-27 07:32:00,46.4,9.6,30.06,SSW,200,6.7,6.7,22,0.00,,---,0.00,VWS V14.01,2013-12-27 14:32:00,
2013-12-27 07:35:00,46.4,9.6,30.03,SSW,210,5.4,5.8,22,0.00,,---,0.00,VWS V14.01,2013-12-27 14:35:00,
2013-12-27 07:37:00,46.4,9.6,30.03,SSW,202,7.6,7.6,22,0.00,,---,0.00,VWS V14.01,2013-12-27 14:37:00,
2013-12-27 07:41:00,46.0,9.3,30.03,SSW,206,5.4,5.4,22,0.00,,---,0.00,VWS V14.01,2013-12-27 14:41:00,
2013-12-27 07:42:00,46.0,9.3,30.03,SSW,207,5.4,5.8,22,0.00,,---,0.00,VWS V14.01,2013-12-27 14:42:00,
2013-12-27 07:43:00,46.0,9.3,30.03,SSW,207,6.3,6.3,22,0.00,,---,0.00,VWS V14.01,2013-12-27 14:43:00,
2013-12-27 07:45:00,44.4,8.9,30.03,SSW,207,5.4,8.1,23,0.00,,,0.00,VWS V15.00,2013-12-27 14:45:00,
2013-12-27 07:46:00,45.9,9.2,30.03,SW,216,6.3,6.3,22,0.00,,---,0.00,VWS V14.01,2013-12-27 14:46:00,
2013-12-27 07:47:00,45.9,9.2,30.03,SW,214,5.4,6.3,22,0.00,,---,0.00,VWS V14.01,2013-12-27 14:47:00,
2013-12-27 07:48:00,45.9,9.2,30.03,SSW,206,5.8,5.8,22,0.00,,---,0.00,VWS V14.01,2013-12-27 14:48:00,
2013-12-27 07:51:00,45.9,9.2,30.03,SSW,212,6.3,6.3,22,0.00,,---,0.00,VWS V14.01,2013-12-27 14:51:00,
2013-12-27 07:52:00,45.9,9.2,30.03,SSW,206,5.4,5.4,22,0.00,,---,0.00,VWS V14.01,2013-12-27 14:52:00,
2013-12-27 07:53:00,45.9,9.2,30.03,SSW,202,6.7,6.7,22,0.00,,---,0.00,VWS V14.01,2013-12-27 14:53:00,
2013-12-27 07:56:00,45.7,9.0,30.03,SSW,206,7.6,7.6,22,0.00,,---,0.00,VWS V14.01,2013-12-27 14:56:00,
2013-12-27 07:58:00,45.7,9.0,30.03,SSW,213,6.3,6.7,22,0.00,,---,0.00,VWS V14.01,2013-12-27 14:58:00,
2013-12-27 08:00:00,44.4,8.9,30.03,SSW,206,6.3,7.6,23,0.00,,,0.00,VWS V15.00,2013-12-27 15:00:00,
2013-12-27 08:01:00,45.5,8.9,30.03,SSW,200,5.8,5.8,22,0.00,,---,0.00,VWS V14.01,2013-12-27 15:01:00,
2013-12-27 08:03:00,45.5,8.9,30.03,SSW,192,6.3,6.3,22,0.00,,---,0.00,VWS V14.01,2013-12-27 15:03:00,
2013-12-27 08:06:00,45.3,8.7,30.03,SSW,200,6.3,6.3,22,0.00,,---,0.00,VWS V14.01,2013-12-27 15:06:00,
2013-12-27 08:08:00,45.1,8.6,30.03,SSW,208,7.2,7.2,22,0.00,,---,0.00,VWS V14.01,2013-12-27 15:08:00,
2013-12-27 08:09:00,45.1,8.6,30.03,SSW,208,5.8,7.6,22,0.00,,---,0.00,VWS V14.01,2013-12-27 15:09:00,
2013-12-27 08:11:00,45.0,8.4,30.03,SSW,204,5.8,5.8,22,0.00,,---,0.00,VWS V14.01,2013-12-27 15:11:00,
2013-12-27 08:13:00,44.8,8.3,30.03,SW,214,5.8,5.8,22,0.00,,---,0.00,VWS V14.01,2013-12-27 15:13:00,
2013-12-27 08:14:00,44.8,8.3,30.03,SSW,202,6.7,6.7,22,0.00,,---,0.00,VWS V14.01,2013-12-27 15:14:00,
2013-12-27 08:15:00,45.3,8.7,30.03,SSW,195,5.8,5.8,22,0.00,,,0.00,VWS V15.00,2013-12-27 15:15:00,
2013-12-27 08:17:00,44.8,8.3,30.03,SSW,203,5.8,5.8,22,0.00,,---,0.00,VWS V14.01,2013-12-27 15:17:00,
2013-12-27 08:18:00,44.8,8.3,30.03,SSW,203,8.1,8.1,22,0.00,,---,0.00,VWS V14.01,2013-12-27 15:18:00,
2013-12-27 08:19:00,44.8,8.3,30.03,SSW,195,5.8,6.7,22,0.00,,---,0.00,VWS V14.01,2013-12-27 15:19:00,
2013-12-27 08:20:00,44.8,8.3,30.03,SSW,209,5.4,5.8,22,0.00,,---,0.00,VWS V14.01,2013-12-27 15:20:00,
2013-12-27 08:22:00,44.6,8.1,30.03,SSW,206,6.3,6.3,22,0.00,,---,0.00,VWS V14.01,2013-12-27 15:22:00,
2013-12-27 08:23:00,44.6,8.1,30.03,SSW,205,8.1,8.1,22,0.00,,---,0.00,VWS V14.01,2013-12-27 15:23:00,
2013-12-27 08:24:00,44.6,8.1,30.03,SSW,197,5.8,5.8,22,0.00,,---,0.00,VWS V14.01,2013-12-27 15:24:00,
2013-12-27 08:25:00,44.6,6.0,30.03,SSW,202,5.4,6.7,20,0.00,,---,0.00,VWS V14.01,2013-12-27 15:25:00,
2013-12-27 08:27:00,44.4,8.9,30.03,SSW,207,5.8,5.8,23,0.00,,---,0.00,VWS V14.01,2013-12-27 15:27:00,
2013-12-27 08:28:00,44.4,8.9,30.03,SSW,208,6.3,6.3,23,0.00,,---,0.00,VWS V14.01,2013-12-27 15:28:00,
2013-12-27 08:29:00,44.4,8.9,30.03,SSW,197,7.6,7.6,23,0.00,,---,0.00,VWS V14.01,2013-12-27 15:29:00,
2013-12-27 08:30:00,44.4,8.9,30.03,SSW,197,5.8,5.8,23,0.00,,---,0.00,VWS V14.01,2013-12-27 15:30:00,
2013-12-27 08:33:00,44.2,8.8,30.03,SSW,209,5.4,5.8,23,0.00,,---,0.00,VWS V14.01,2013-12-27 15:33:00,
2013-12-27 08:35:00,44.2,8.8,30.03,SSW,210,7.6,8.1,23,0.00,,---,0.00,VWS V14.01,2013-12-27 15:35:00,
2013-12-27 08:38:00,44.2,8.8,30.03,SSW,204,5.8,6.3,23,0.00,,---,0.00,VWS V14.01,2013-12-27 15:38:00,
2013-12-27 08:39:00,44.2,8.8,30.03,SW,215,6.3,6.7,23,0.00,,---,0.00,VWS V14.01,2013-12-27 15:39:00,
2013-12-27 08:40:00,44.2,8.8,30.03,SSW,205,7.6,7.6,23,0.00,,---,0.00,VWS V14.01,2013-12-27 15:40:00,
2013-12-27 08:41:00,44.4,8.9,30.03,SSW,201,5.8,5.8,23,0.00,,---,0.00,VWS V14.01,2013-12-27 15:41:00,
2013-12-27 08:43:00,44.2,8.8,30.03,SSW,200,7.2,7.2,23,0.00,,---,0.00,VWS V14.01,2013-12-27 15:43:00,
2013-12-27 08:44:00,44.4,8.9,30.03,SSW,211,7.6,7.6,23,0.00,,---,0.00,VWS V14.01,2013-12-27 15:44:00,
2013-12-27 08:45:00,44.4,8.9,30.03,SSW,208,7.6,7.6,23,0.00,,---,0.00,VWS V14.01,2013-12-27 15:45:00,
2013-12-27 08:46:00,44.4,8.9,30.03,SW,228,5.4,5.8,23,0.00,,---,0.00,VWS V14.01,2013-12-27 15:46:00,
2013-12-27 08:48:00,44.6,8.1,30.03,SSW,205,6.3,6.3,22,0.00,,---,0.00,VWS V14.01,2013-12-27 15:48:00,
2013-12-27 08:49:00,44.6,8.1,30.03,SSW,207,6.3,6.3,22,0.00,,---,0.00,VWS V14.01,2013-12-27 15:49:00,
2013-12-27 08:50:00,44.6,8.1,30.03,SSW,210,5.4,5.8,22,0.00,,---,0.00,VWS V14.01,2013-12-27 15:50:00,
2013-12-27 08:51:00,44.6,8.1,30.03,SSW,208,6.3,6.3,22,0.00,,---,0.00,VWS V14.01,2013-12-27 15:51:00,
2013-12-27 08:53:00,44.6,6.0,30.03,SSW,192,7.2,7.2,20,0.00,,---,0.00,VWS V14.01,2013-12-27 15:53:00,
2013-12-27 08:54:00,44.6,6.0,30.03,SSW,213,5.4,7.2,20,0.00,,---,0.00,VWS V14.01,2013-12-27 15:54:00,
2013-12-27 08:56:00,44.6,8.1,30.03,SSW,198,5.4,5.4,22,0.00,,---,0.00,VWS V14.01,2013-12-27 15:56:00,
2013-12-27 08:58:00,44.4,8.9,30.03,SSW,212,4.9,4.9,23,0.00,,---,0.00,VWS V14.01,2013-12-27 15:58:00,
2013-12-27 08:59:00,44.4,8.9,30.03,SSW,212,4.9,4.9,23,0.00,,---,0.00,VWS V14.01,2013-12-27 15:59:00,
2013-12-27 09:00:00,39.6,10.7,30.03,South,178,0.0,0.0,30,0.00,,,0.00,VWS V15.00,2013-12-27 16:00:00,
2013-12-27 09:01:00,44.6,8.1,30.03,SSW,202,5.4,6.3,22,0.00,,---,0.00,VWS V14.01,2013-12-27 16:01:00,
2013-12-27 09:02:00,44.6,8.1,30.03,South,191,5.4,5.4,22,0.00,,---,0.00,VWS V14.01,2013-12-27 16:02:00,
2013-12-27 09:03:00,44.6,8.1,30.03,SW,215,4.9,5.4,22,0.00,,---,0.00,VWS V14.01,2013-12-27 16:03:00,
2013-12-27 09:04:00,44.8,8.3,30.03,SSW,204,5.8,5.8,22,0.00,,---,0.00,VWS V14.01,2013-12-27 16:04:00,
2013-12-27 09:06:00,45.0,8.4,30.03,SSW,197,5.8,6.3,22,0.00,,---,0.00,VWS V14.01,2013-12-27 16:06:00,
2013-12-27 09:07:00,45.0,8.4,30.03,SSW,208,6.3,6.3,22,0.00,,---,0.00,VWS V14.01,2013-12-27 16:07:00,
2013-12-27 09:08:00,45.1,8.6,30.03,SSW,199,3.6,4.9,22,0.00,,---,0.00,VWS V14.01,2013-12-27 16:08:00,
2013-12-27 09:09:00,45.1,8.6,30.03,South,191,5.4,5.4,22,0.00,,---,0.00,VWS V14.01,2013-12-27 16:09:00,
2013-12-27 09:12:00,45.3,8.7,30.03,SW,216,4.5,4.5,22,0.00,,---,0.00,VWS V14.01,2013-12-27 16:12:00,
2013-12-27 09:14:00,45.3,8.7,30.03,SSW,211,3.1,5.4,22,0.00,,---,0.00,VWS V14.01,2013-12-27 16:14:00,
2013-12-27 09:15:00,45.3,8.7,30.03,SSW,209,4.0,5.8,22,0.00,,---,0.00,VWS V14.01,2013-12-27 16:15:00,
2013-12-27 09:17:00,45.5,8.9,30.03,SSW,204,3.6,5.4,22,0.00,,---,0.00,VWS V14.01,2013-12-27 16:17:00,
2013-12-27 09:18:00,45.5,8.9,30.03,South,186,3.1,3.6,22,0.00,,---,0.00,VWS V14.01,2013-12-27 16:18:00,
2013-12-27 09:19:00,45.5,8.9,30.03,SSW,192,2.7,2.7,22,0.00,,---,0.00,VWS V14.01,2013-12-27 16:19:00,
2013-12-27 09:20:00,45.5,8.9,30.03,South,184,2.7,3.1,22,0.00,,---,0.00,VWS V14.01,2013-12-27 16:20:00,
2013-12-27 09:22:00,45.0,8.4,30.03,South,184,0.0,0.0,22,0.00,,---,0.00,VWS V14.01,2013-12-27 16:22:00,
2013-12-27 09:24:00,44.1,8.6,30.03,South,184,0.0,0.0,23,0.00,,---,0.00,VWS V14.01,2013-12-27 16:24:00,
2013-12-27 09:25:00,43.7,8.3,30.03,South,184,0.0,0.0,23,0.00,,---,0.00,VWS V14.01,2013-12-27 16:25:00,
2013-12-27 09:27:00,43.2,9.7,30.03,South,187,0.0,0.0,25,0.00,,---,0.00,VWS V14.01,2013-12-27 16:27:00,
2013-12-27 09:29:00,42.8,9.4,30.03,South,187,0.0,0.0,25,0.00,,---,0.00,VWS V14.01,2013-12-27 16:29:00,
2013-12-27 09:30:00,42.8,9.4,30.03,South,187,0.0,0.0,25,0.00,,---,0.00,VWS V14.01,2013-12-27 16:30:00,
2013-12-27 09:32:00,42.6,10.1,30.03,SSW,195,3.1,3.1,26,0.00,,---,0.00,VWS V14.01,2013-12-27 16:32:00,
2013-12-27 09:34:00,43.0,9.6,30.03,South,190,0.0,2.2,25,0.00,,---,0.00,VWS V14.01,2013-12-27 16:34:00,
2013-12-27 09:35:00,43.2,9.7,30.03,South,190,0.0,2.2,25,0.00,,---,0.00,VWS V14.01,2013-12-27 16:35:00,
2013-12-27 09:36:00,43.2,9.7,30.03,South,190,0.0,2.2,25,0.00,,---,0.00,VWS V14.01,2013-12-27 16:36:00,
2013-12-27 09:38:00,43.9,10.4,30.03,South,190,0.0,0.0,25,0.00,,---,0.00,VWS V14.01,2013-12-27 16:38:00,
2013-12-27 09:39:00,43.7,12.8,30.03,South,190,0.0,0.0,28,0.00,,---,0.00,VWS V14.01,2013-12-27 16:39:00,
2013-12-27 09:40:00,43.7,12.8,30.03,South,190,0.0,0.0,28,0.00,,---,0.00,VWS V14.01,2013-12-27 16:40:00,
2013-12-27 09:41:00,43.5,10.0,30.03,NW,310,3.1,3.1,25,0.00,,---,0.00,VWS V14.01,2013-12-27 16:41:00,
2013-12-27 09:43:00,43.2,12.3,30.03,North,357,0.0,0.0,28,0.00,,---,0.00,VWS V14.01,2013-12-27 16:43:00,
2013-12-27 09:44:00,42.6,11.8,30.03,North,357,0.0,0.0,28,0.00,,---,0.00,VWS V14.01,2013-12-27 16:44:00,
2013-12-27 09:45:00,42.4,11.7,30.03,North,6,0.0,0.0,28,0.00,,---,0.00,VWS V14.01,2013-12-27 16:45:00,
2013-12-27 09:46:00,42.3,11.5,30.03,North,7,0.0,0.0,28,0.00,,---,0.00,VWS V14.01,2013-12-27 16:46:00,
2013-12-27 09:48:00,41.7,11.0,30.03,NNE,28,3.1,3.1,28,0.00,,---,0.00,VWS V14.01,2013-12-27 16:48:00,
2013-12-27 09:49:00,41.2,10.6,30.03,NNE,28,0.0,0.0,28,0.00,,---,0.00,VWS V14.01,2013-12-27 16:49:00,
2013-12-27 09:50:00,40.6,10.9,30.03,NE,45,0.0,0.0,29,0.00,,---,0.00,VWS V14.01,2013-12-27 16:50:00,
2013-12-27 09:51:00,40.6,10.9,30.03,NE,45,0.0,0.0,29,0.00,,---,0.00,VWS V14.01,2013-12-27 16:51:00,
2013-12-27 09:53:00,40.1,10.4,30.03,East,93,0.0,0.0,29,0.00,,---,0.00,VWS V14.01,2013-12-27 16:53:00,
2013-12-27 09:55:00,39.9,10.2,30.03,East,101,0.0,0.0,29,0.00,,---,0.00,VWS V14.01,2013-12-27 16:55:00,
2013-12-27 09:56:00,39.7,10.1,30.03,ESE,121,0.0,0.0,29,0.00,,---,0.00,VWS V14.01,2013-12-27 16:56:00,
2013-12-27 09:58:00,39.7,10.1,30.03,South,182,0.0,2.2,29,0.00,,---,0.00,VWS V14.01,2013-12-27 16:58:00,
2013-12-27 10:00:00,39.6,10.7,30.03,South,178,0.0,0.0,30,0.00,,---,0.00,VWS V14.01,2013-12-27 17:00:00,
2013-12-27 10:01:00,39.6,10.7,30.03,South,178,0.0,0.0,30,0.00,,---,0.00,VWS V14.01,2013-12-27 17:01:00,
2013-12-27 10:03:00,39.4,10.5,30.03,South,185,0.0,0.0,30,0.00,,---,0.00,VWS V14.01,2013-12-27 17:03:00,
2013-12-27 10:04:00,39.4,10.5,30.03,South,185,0.0,0.0,30,0.00,,---,0.00,VWS V14.01,2013-12-27 17:04:00,
2013-12-27 10:05:00,39.4,10.5,30.03,South,185,0.0,0.0,30,0.00,,---,0.00,VWS V14.01,2013-12-27 17:05:00,
2013-12-27 10:06:00,39.4,10.5,30.03,South,185,0.0,0.0,30,0.00,,---,0.00,VWS V14.01,2013-12-27 17:06:00,
2013-12-27 10:08:00,39.6,10.7,30.03,South,185,0.0,0.0,30,0.00,,---,0.00,VWS V14.01,2013-12-27 17:08:00,
2013-12-27 10:09:00,39.7,10.9,30.03,South,185,0.0,0.0,30,0.00,,---,0.00,VWS V14.01,2013-12-27 17:09:00,
2013-12-27 10:10:00,39.7,10.9,30.03,NE,34,3.6,3.6,30,0.00,,---,0.00,VWS V14.01,2013-12-27 17:10:00,
2013-12-27 10:11:00,39.9,11.0,30.03,North,5,4.0,4.0,30,0.00,,---,0.00,VWS V14.01,2013-12-27 17:11:00,
2013-12-27 10:12:00,39.9,11.0,30.03,North,5,3.6,4.0,30,0.00,,---,0.00,VWS V14.01,2013-12-27 17:12:00,
2013-12-27 10:14:00,40.5,10.7,30.03,East,88,2.7,2.7,29,0.00,,---,0.00,VWS V14.01,2013-12-27 17:14:00,
2013-12-27 10:15:00,40.6,11.6,30.03,SSE,147,3.6,3.6,30,0.00,,---,0.00,VWS V14.01,2013-12-27 17:15:00,
2013-12-27 10:16:00,41.0,11.2,30.03,SE,126,2.7,3.1,29,0.00,,---,0.00,VWS V14.01,2013-12-27 17:16:00,
2013-12-27 10:17:00,41.2,11.4,30.03,NNE,19,3.1,3.1,29,0.00,,---,0.00,VWS V14.01,2013-12-27 17:17:00,
2013-12-27 10:19:00,41.4,11.5,30.00,North,3,4.0,4.9,29,0.00,,---,0.00,VWS V14.01,2013-12-27 17:19:00,
2013-12-27 10:20:00,41.5,11.7,30.00,North,4,3.1,3.1,29,0.00,,---,0.00,VWS V14.01,2013-12-27 17:20:00,
2013-12-27 10:21:00,41.9,12.0,30.00,NNE,33,2.7,2.7,29,0.00,,---,0.00,VWS V14.01,2013-12-27 17:21:00,
2013-12-27 10:22:00,42.1,12.1,30.00,NNE,32,2.7,2.7,29,0.00,,---,0.00,VWS V14.01,2013-12-27 17:22:00,
2013-12-27 10:24:00,42.3,12.3,30.00,NNE,16,3.6,4.0,29,0.00,,---,0.00,VWS V14.01,2013-12-27 17:24:00,
2013-12-27 10:25:00,42.3,12.3,30.00,NNE,17,0.0,0.0,29,0.00,,---,0.00,VWS V14.01,2013-12-27 17:25:00,
2013-12-27 10:26:00,42.3,11.5,30.00,NNE,20,0.0,0.0,28,0.00,,---,0.00,VWS V14.01,2013-12-27 17:26:00,
2013-12-27 10:27:00,42.4,11.7,30.00,NNE,18,0.0,0.0,28,0.00,,---,0.00,VWS V14.01,2013-12-27 17:27:00,
2013-12-27 10:29:00,42.6,11.8,30.00,NNE,18,0.0,0.0,28,0.00,,---,0.00,VWS V14.01,2013-12-27 17:29:00,
2013-12-27 10:30:00,42.8,12.0,30.00,NNE,18,0.0,0.0,28,0.00,,---,0.00,VWS V14.01,2013-12-27 17:30:00,
2013-12-27 10:31:00,42.8,12.0,30.00,NNE,18,0.0,0.0,28,0.00,,---,0.00,VWS V14.01,2013-12-27 17:31:00,
2013-12-27 10:32:00,42.8,12.0,30.00,NNE,18,2.2,2.2,28,0.00,,---,0.00,VWS V14.01,2013-12-27 17:32:00,
2013-12-27 10:33:00,42.8,12.0,30.00,NNE,18,2.2,2.2,28,0.00,,---,0.00,VWS V14.01,2013-12-27 17:33:00,
2013-12-27 10:34:00,42.8,12.0,30.00,North,7,5.4,5.4,28,0.00,,---,0.00,VWS V14.01,2013-12-27 17:34:00,
2013-12-27 10:35:00,42.8,12.0,30.00,NNE,12,2.7,3.6,28,0.00,,---,0.00,VWS V14.01,2013-12-27 17:35:00,
2013-12-27 10:36:00,42.8,12.0,30.00,North,11,5.4,5.4,28,0.00,,---,0.00,VWS V14.01,2013-12-27 17:36:00,
2013-12-27 10:37:00,42.6,11.8,30.00,NNE,12,4.9,5.4,28,0.00,,---,0.00,VWS V14.01,2013-12-27 17:37:00,
2013-12-27 10:38:00,42.6,11.8,30.00,NNE,12,4.9,5.4,28,0.00,,---,0.00,VWS V14.01,2013-12-27 17:38:00,
2013-12-27 10:39:00,42.4,11.7,30.00,North,4,3.1,4.0,28,0.00,,---,0.00,VWS V14.01,2013-12-27 17:39:00,
2013-12-27 10:40:00,42.3,11.5,30.00,North,0,5.8,5.8,28,0.00,,---,0.00,VWS V14.01,2013-12-27 17:40:00,
2013-12-27 10:42:00,42.4,12.4,30.00,North,5,4.0,4.0,29,0.00,,---,0.00,VWS V14.01,2013-12-27 17:42:00,
2013-12-27 10:43:00,42.4,11.7,30.00,North,353,3.6,3.6,28,0.00,,---,0.00,VWS V14.01,2013-12-27 17:43:00,
2013-12-27 10:44:00,42.6,11.8,30.00,North,353,3.1,3.1,28,0.00,,---,0.00,VWS V14.01,2013-12-27 17:44:00,
2013-12-27 10:45:00,42.8,12.0,30.00,North,353,3.1,4.0,28,0.00,,---,0.00,VWS V14.01,2013-12-27 17:45:00,
2013-12-27 10:47:00,43.0,12.1,30.00,NNE,15,4.9,4.9,28,0.00,,---,0.00,VWS V14.01,2013-12-27 17:47:00,
2013-12-27 10:48:00,43.0,12.1,30.00,North,9,4.9,4.9,28,0.00,,---,0.00,VWS V14.01,2013-12-27 17:48:00,
2013-12-27 10:49:00,43.0,12.1,30.00,North,1,4.9,5.4,28,0.00,,---,0.00,VWS V14.01,2013-12-27 17:49:00,
2013-12-27 10:50:00,43.0,12.1,30.00,North,11,3.1,3.1,28,0.00,,---,0.00,VWS V14.01,2013-12-27 17:50:00,
2013-12-27 10:52:00,43.0,12.1,30.00,North,8,3.6,3.6,28,0.00,,---,0.00,VWS V14.01,2013-12-27 17:52:00,
2013-12-27 10:53:00,43.0,12.1,30.00,North,4,4.0,4.0,28,0.00,,---,0.00,VWS V14.01,2013-12-27 17:53:00,
2013-12-27 10:54:00,43.0,12.1,30.00,North,6,3.1,3.1,28,0.00,,---,0.00,VWS V14.01,2013-12-27 17:54:00,
2013-12-27 10:56:00,42.8,12.0,30.00,North,11,3.6,4.0,28,0.00,,---,0.00,VWS V14.01,2013-12-27 17:56:00,
2013-12-27 10:57:00,42.8,12.0,30.00,NNE,12,3.1,3.6,28,0.00,,---,0.00,VWS V14.01,2013-12-27 17:57:00,
2013-12-27 10:58:00,42.8,12.0,30.00,NNE,12,2.7,3.6,28,0.00,,---,0.00,VWS V14.01,2013-12-27 17:58:00,
2013-12-27 11:00:00,43.0,12.1,30.00,NNE,24,4.9,4.9,28,0.00,,---,0.00,VWS V14.01,2013-12-27 18:00:00,
2013-12-27 11:01:00,43.0,12.1,30.00,NNE,24,4.9,4.9,28,0.00,,---,0.00,VWS V14.01,2013-12-27 18:01:00,
2013-12-27 11:02:00,43.2,12.3,30.00,North,0,4.0,4.0,28,0.00,,---,0.00,VWS V14.01,2013-12-27 18:02:00,
2013-12-27 11:03:00,43.2,12.3,30.00,North,4,5.8,5.8,28,0.00,,---,0.00,VWS V14.01,2013-12-27 18:03:00,
2013-12-27 11:05:00,43.3,12.4,30.00,North,7,5.4,5.4,28,0.00,,---,0.00,VWS V14.01,2013-12-27 18:05:00,
2013-12-27 11:06:00,43.3,12.4,30.00,North,7,4.9,4.9,28,0.00,,---,0.00,VWS V14.01,2013-12-27 18:06:00,
2013-12-27 11:07:00,43.2,12.3,30.00,North,5,5.4,5.4,28,0.00,,---,0.00,VWS V14.01,2013-12-27 18:07:00,
2013-12-27 11:08:00,43.2,12.3,30.00,NNE,28,4.0,5.4,28,0.00,,---,0.00,VWS V14.01,2013-12-27 18:08:00,
2013-12-27 11:10:00,43.2,12.3,30.00,North,9,0.0,2.2,28,0.00,,---,0.00,VWS V14.01,2013-12-27 18:10:00,
2013-12-27 11:11:00,43.2,12.3,30.00,North,9,0.0,0.0,28,0.00,,---,0.00,VWS V14.01,2013-12-27 18:11:00,
2013-12-27 11:12:00,43.3,12.4,30.00,NNE,14,3.1,3.6,28,0.00,,---,0.00,VWS V14.01,2013-12-27 18:12:00,
2013-12-27 11:13:00,43.3,12.4,30.00,NNE,14,0.0,0.0,28,0.00,,---,0.00,VWS V14.01,2013-12-27 18:13:00,
2013-12-27 11:15:00,43.3,12.4,30.00,North,11,0.0,0.0,28,0.00,,---,0.00,VWS V14.01,2013-12-27 18:15:00,
2013-12-27 11:16:00,43.3,12.4,30.00,North,11,0.0,0.0,28,0.00,,---,0.00,VWS V14.01,2013-12-27 18:16:00,
2013-12-27 11:17:00,43.2,12.3,30.00,NNE,15,0.0,0.0,28,0.00,,---,0.00,VWS V14.01,2013-12-27 18:17:00,
2013-12-27 11:18:00,43.2,12.3,30.00,NNE,15,0.0,0.0,28,0.00,,---,0.00,VWS V14.01,2013-12-27 18:18:00,
2013-12-27 11:19:00,43.2,12.3,30.00,NNE,15,0.0,0.0,28,0.00,,---,0.00,VWS V14.01,2013-12-27 18:19:00,
2013-12-27 11:20:00,43.2,12.3,30.00,NNE,15,0.0,0.0,28,0.00,,---,0.00,VWS V14.01,2013-12-27 18:20:00,
2013-12-27 11:21:00,43.2,12.3,30.00,NNE,15,0.0,0.0,28,0.00,,---,0.00,VWS V14.01,2013-12-27 18:21:00,
2013-12-27 11:22:00,43.2,12.3,30.00,NNE,15,0.0,0.0,28,0.00,,---,0.00,VWS V14.01,2013-12-27 18:22:00,
2013-12-27 11:23:00,43.0,12.1,30.00,NNE,20,3.1,3.1,28,0.00,,---,0.00,VWS V14.01,2013-12-27 18:23:00,
2013-12-27 11:24:00,43.0,12.1,30.00,NNE,21,0.0,2.7,28,0.00,,---,0.00,VWS V14.01,2013-12-27 18:24:00,
2013-12-27 11:25:00,43.0,12.1,30.00,NNE,21,3.1,3.1,28,0.00,,---,0.00,VWS V14.01,2013-12-27 18:25:00,
2013-12-27 11:26:00,43.0,12.1,30.00,NNE,21,0.0,0.0,28,0.00,,---,0.00,VWS V14.01,2013-12-27 18:26:00,
2013-12-27 11:27:00,43.0,12.1,30.00,NNE,21,0.0,0.0,28,0.00,,---,0.00,VWS V14.01,2013-12-27 18:27:00,
2013-12-27 11:28:00,43.0,12.1,30.00,NNE,21,0.0,0.0,28,0.00,,---,0.00,VWS V14.01,2013-12-27 18:28:00,
2013-12-27 11:29:00,43.0,12.1,30.00,NNE,16,0.0,0.0,28,0.00,,---,0.00,VWS V14.01,2013-12-27 18:29:00,
2013-12-27 11:30:00,43.0,12.1,30.00,NNE,16,0.0,0.0,28,0.00,,---,0.00,VWS V14.01,2013-12-27 18:30:00,
2013-12-27 11:31:00,43.0,12.1,30.00,NNE,16,0.0,0.0,28,0.00,,---,0.00,VWS V14.01,2013-12-27 18:31:00,
2013-12-27 11:32:00,43.2,12.3,30.00,NNE,16,0.0,0.0,28,0.00,,---,0.00,VWS V14.01,2013-12-27 18:32:00,
2013-12-27 11:33:00,43.2,12.3,29.97,NNE,19,0.0,0.0,28,0.00,,---,0.00,VWS V14.01,2013-12-27 18:33:00,
2013-12-27 11:34:00,43.3,12.4,29.97,NNE,19,0.0,0.0,28,0.00,,---,0.00,VWS V14.01,2013-12-27 18:34:00,
2013-12-27 11:36:00,43.3,12.4,29.97,NNE,15,0.0,0.0,28,0.00,,---,0.00,VWS V14.01,2013-12-27 18:36:00,
2013-12-27 11:37:00,43.3,12.4,29.97,NNE,12,3.6,3.6,28,0.00,,---,0.00,VWS V14.01,2013-12-27 18:37:00,
2013-12-27 11:38:00,43.3,13.2,29.97,NNE,12,4.0,5.4,29,0.00,,---,0.00,VWS V14.01,2013-12-27 18:38:00,
2013-12-27 11:39:00,43.2,13.1,29.97,NNE,14,2.7,3.1,29,0.00,,---,0.00,VWS V14.01,2013-12-27 18:39:00,
2013-12-27 11:41:00,42.8,12.8,29.97,NNE,15,2.7,2.7,29,0.00,,---,0.00,VWS V14.01,2013-12-27 18:41:00,
2013-12-27 11:42:00,42.6,12.6,29.97,NNE,12,3.6,3.6,29,0.00,,---,0.00,VWS V14.01,2013-12-27 18:42:00,
2013-12-27 11:43:00,42.6,12.6,29.97,NNE,12,3.6,3.6,29,0.00,,---,0.00,VWS V14.01,2013-12-27 18:43:00,
2013-12-27 11:44:00,42.4,12.4,29.97,NNE,12,2.7,2.7,29,0.00,,---,0.00,VWS V14.01,2013-12-27 18:44:00,
2013-12-27 11:45:00,41.9,13.5,29.97,North,6,4.9,4.9,31,0.00,,,0.00,VWS V15.00,2013-12-27 18:45:00,
2013-12-27 11:46:00,42.3,12.3,29.97,North,5,4.0,4.0,29,0.00,,---,0.00,VWS V14.01,2013-12-27 18:46:00,
2013-12-27 11:48:00,42.3,12.3,29.97,North,3,2.2,2.7,29,0.00,,---,0.00,VWS V14.01,2013-12-27 18:48:00,
2013-12-27 11:50:00,42.1,12.1,29.97,North,7,3.6,3.6,29,0.00,,---,0.00,VWS V14.01,2013-12-27 18:50:00,
2013-12-27 11:51:00,42.1,12.1,29.97,North,7,3.1,3.1,29,0.00,,---,0.00,VWS V14.01,2013-12-27 18:51:00,
2013-12-27 11:53:00,41.9,12.0,29.97,North,4,2.7,2.7,29,0.00,,---,0.00,VWS V14.01,2013-12-27 18:53:00,
2013-12-27 11:55:00,41.9,12.0,29.97,NNE,12,2.7,2.7,29,0.00,,---,0.00,VWS V14.01,2013-12-27 18:55:00,
2013-12-27 11:56:00,41.7,11.8,29.97,North,6,2.2,3.1,29,0.00,,---,0.00,VWS V14.01,2013-12-27 18:56:00,
2013-12-27 11:58:00,41.7,12.6,29.97,North,9,2.7,2.7,30,0.00,,---,0.00,VWS V14.01,2013-12-27 18:58:00,
2013-12-27 12:00:00,41.5,12.4,29.97,NNE,29,2.7,2.7,30,0.00,,---,0.00,VWS V14.01,2013-12-27 19:00:00,
2013-12-27 12:02:00,41.4,12.3,29.97,NNE,29,3.1,3.1,30,0.00,,---,0.00,VWS V14.01,2013-12-27 19:02:00,
2013-12-27 12:03:00,41.2,12.1,29.97,NNE,14,3.6,3.6,30,0.00,,---,0.00,VWS V14.01,2013-12-27 19:03:00,
2013-12-27 12:04:00,41.0,12.0,29.97,North,11,0.0,2.7,30,0.00,,---,0.00,VWS V14.01,2013-12-27 19:04:00,
2013-12-27 12:05:00,41.0,12.0,29.97,NNE,21,0.0,0.0,30,0.00,,---,0.00,VWS V14.01,2013-12-27 19:05:00,
2013-12-27 12:07:00,40.8,12.5,29.97,North,4,3.6,4.0,31,0.00,,---,0.00,VWS V14.01,2013-12-27 19:07:00,
2013-12-27 12:08:00,40.8,12.5,29.97,North,4,0.0,2.2,31,0.00,,---,0.00,VWS V14.01,2013-12-27 19:08:00,
2013-12-27 12:09:00,40.8,12.5,29.97,North,8,3.6,3.6,31,0.00,,---,0.00,VWS V14.01,2013-12-27 19:09:00,
2013-12-27 12:10:00,40.8,12.5,29.97,North,9,2.7,2.7,31,0.00,,---,0.00,VWS V14.01,2013-12-27 19:10:00,
2013-12-27 12:12:00,40.8,12.5,29.97,North,9,0.0,0.0,31,0.00,,---,0.00,VWS V14.01,2013-12-27 19:12:00,
2013-12-27 12:13:00,40.6,12.4,29.97,NNE,23,0.0,2.2,31,0.00,,---,0.00,VWS V14.01,2013-12-27 19:13:00,
2013-12-27 12:14:00,40.8,12.5,29.97,NNE,23,0.0,0.0,31,0.00,,---,0.00,VWS V14.01,2013-12-27 19:14:00,
2013-12-27 12:15:00,41.9,12.7,29.94,North,10,2.7,2.7,30,0.00,,,0.00,VWS V15.00,2013-12-27 19:15:00,
2013-12-27 12:16:00,40.8,12.5,29.97,NNE,23,0.0,0.0,31,0.00,,---,0.00,VWS V14.01,2013-12-27 19:16:00,
2013-12-27 12:17:00,40.8,12.5,29.97,NNE,23,0.0,0.0,31,0.00,,---,0.00,VWS V14.01,2013-12-27 19:17:00,
2013-12-27 12:19:00,41.0,12.7,29.97,NNE,25,4.9,4.9,31,0.00,,---,0.00,VWS V14.01,2013-12-27 19:19:00,
2013-12-27 12:22:00,41.2,12.1,29.97,NNE,20,2.7,3.1,30,0.00,,---,0.00,VWS V14.01,2013-12-27 19:22:00,
2013-12-27 12:24:00,41.4,12.3,29.97,NNE,15,3.1,3.1,30,0.00,,---,0.00,VWS V14.01,2013-12-27 19:24:00,
2013-12-27 12:25:00,41.4,13.0,29.97,North,5,3.6,4.0,31,0.00,,---,0.00,VWS V14.01,2013-12-27 19:25:00,
2013-12-27 12:27:00,41.5,13.2,29.97,NNW,345,4.0,4.0,31,0.00,,---,0.00,VWS V14.01,2013-12-27 19:27:00,
2013-12-27 12:29:00,41.5,12.4,29.97,NNE,20,2.7,3.1,30,0.00,,---,0.00,VWS V14.01,2013-12-27 19:29:00,
2013-12-27 12:30:00,41.5,13.2,29.97,NNE,19,2.2,2.7,31,0.00,,---,0.00,VWS V14.01,2013-12-27 19:30:00,
2013-12-27 12:32:00,41.7,13.3,29.97,North,357,4.9,5.4,31,0.00,,---,0.00,VWS V14.01,2013-12-27 19:32:00,
2013-12-27 12:33:00,41.7,13.3,29.97,NNE,12,4.9,5.4,31,0.00,,---,0.00,VWS V14.01,2013-12-27 19:33:00,
2013-12-27 12:34:00,41.9,13.5,29.97,NNE,16,3.6,3.6,31,0.00,,---,0.00,VWS V14.01,2013-12-27 19:34:00,
2013-12-27 12:35:00,41.9,13.5,29.97,North,10,3.1,4.0,31,0.00,,---,0.00,VWS V14.01,2013-12-27 19:35:00,
2013-12-27 12:37:00,42.1,13.6,29.97,NNE,12,4.0,4.9,31,0.00,,---,0.00,VWS V14.01,2013-12-27 19:37:00,
2013-12-27 12:38:00,42.1,13.6,29.97,NNE,15,4.0,4.0,31,0.00,,---,0.00,VWS V14.01,2013-12-27 19:38:00,
2013-12-27 12:39:00,42.1,13.6,29.97,NNE,20,4.0,4.0,31,0.00,,---,0.00,VWS V14.01,2013-12-27 19:39:00,
2013-12-27 12:40:00,42.1,13.6,29.97,NNE,20,2.7,2.7,31,0.00,,---,0.00,VWS V14.01,2013-12-27 19:40:00,
2013-12-27 12:42:00,42.1,13.6,29.97,North,8,4.0,4.9,31,0.00,,---,0.00,VWS V14.01,2013-12-27 19:42:00,
2013-12-27 12:43:00,42.1,13.6,29.97,North,10,3.6,3.6,31,0.00,,---,0.00,VWS V14.01,2013-12-27 19:43:00,
2013-12-27 12:45:00,41.9,13.5,29.97,North,6,4.5,4.5,31,0.00,,---,0.00,VWS V14.01,2013-12-27 19:45:00,
2013-12-27 12:47:00,41.7,13.3,29.97,North,3,4.0,4.0,31,0.00,,---,0.00,VWS V14.01,2013-12-27 19:47:00,
2013-12-27 12:48:00,41.5,13.2,29.97,North,6,3.1,3.1,31,0.00,,---,0.00,VWS V14.01,2013-12-27 19:48:00,
2013-12-27 12:50:00,41.5,13.2,29.97,NNE,12,4.0,4.0,31,0.00,,---,0.00,VWS V14.01,2013-12-27 19:50:00,
2013-12-27 12:51:00,41.5,12.4,29.97,North,1,3.6,4.0,30,0.00,,---,0.00,VWS V14.01,2013-12-27 19:51:00,
2013-12-27 12:52:00,41.5,13.2,29.97,North,4,3.1,3.1,31,0.00,,---,0.00,VWS V14.01,2013-12-27 19:52:00,
2013-12-27 12:54:00,41.5,13.2,29.97,North,9,3.6,4.0,31,0.00,,---,0.00,VWS V14.01,2013-12-27 19:54:00,
2013-12-27 12:55:00,41.5,13.2,29.97,NNE,13,3.6,4.9,31,0.00,,---,0.00,VWS V14.01,2013-12-27 19:55:00,
2013-12-27 12:56:00,41.5,13.2,29.97,NNE,13,2.7,2.7,31,0.00,,---,0.00,VWS V14.01,2013-12-27 19:56:00,
2013-12-27 12:57:00,41.5,13.2,29.97,NNE,13,3.1,3.1,31,0.00,,---,0.00,VWS V14.01,2013-12-27 19:57:00,
2013-12-27 12:59:00,41.5,13.2,29.97,North,9,3.6,3.6,31,0.00,,---,0.00,VWS V14.01,2013-12-27 19:59:00,
2013-12-27 13:00:00,41.7,13.3,29.97,North,7,3.6,3.6,31,0.00,,---,0.00,VWS V14.01,2013-12-27 20:00:00,
2013-12-27 13:01:00,41.7,12.6,29.97,North,7,2.7,3.1,30,0.00,,---,0.00,VWS V14.01,2013-12-27 20:01:00,
2013-12-27 13:02:00,41.7,12.6,29.94,North,6,3.6,4.0,30,0.00,,---,0.00,VWS V14.01,2013-12-27 20:02:00,
2013-12-27 13:04:00,41.9,12.7,29.94,North,3,4.0,4.0,30,0.00,,---,0.00,VWS V14.01,2013-12-27 20:04:00,
2013-12-27 13:05:00,41.9,12.7,29.94,North,6,4.0,4.0,30,0.00,,---,0.00,VWS V14.01,2013-12-27 20:05:00,
2013-12-27 13:06:00,42.1,12.9,29.94,NNE,12,4.0,4.9,30,0.00,,---,0.00,VWS V14.01,2013-12-27 20:06:00,
2013-12-27 13:07:00,42.1,12.9,29.94,North,6,4.0,4.0,30,0.00,,---,0.00,VWS V14.01,2013-12-27 20:07:00,
2013-12-27 13:09:00,42.1,12.9,29.94,North,0,2.7,3.1,30,0.00,,---,0.00,VWS V14.01,2013-12-27 20:09:00,
2013-12-27 13:10:00,42.1,12.9,29.94,North,5,3.6,3.6,30,0.00,,---,0.00,VWS V14.01,2013-12-27 20:10:00,
2013-12-27 13:11:00,42.1,12.9,29.94,North,10,3.1,3.1,30,0.00,,---,0.00,VWS V14.01,2013-12-27 20:11:00,
2013-12-27 13:12:00,42.1,12.9,29.94,North,10,2.7,2.7,30,0.00,,---,0.00,VWS V14.01,2013-12-27 20:12:00,
2013-12-27 13:13:00,41.9,12.7,29.94,North,10,2.7,3.1,30,0.00,,---,0.00,VWS V14.01,2013-12-27 20:13:00,
2013-12-27 13:14:00,41.9,12.7,29.94,North,10,2.7,2.7,30,0.00,,---,0.00,VWS V14.01,2013-12-27 20:14:00,
2013-12-27 13:15:00,41.9,12.7,29.94,North,10,2.7,2.7,30,0.00,,---,0.00,VWS V14.01,2013-12-27 20:15:00,
2013-12-27 13:16:00,41.9,12.7,29.94,North,10,2.7,2.7,30,0.00,,---,0.00,VWS V14.01,2013-12-27 20:16:00,
2013-12-27 13:17:00,41.9,12.7,29.94,North,4,4.0,4.0,30,0.00,,---,0.00,VWS V14.01,2013-12-27 20:17:00,
2013-12-27 13:18:00,41.9,12.7,29.94,North,7,3.6,3.6,30,0.00,,---,0.00,VWS V14.01,2013-12-27 20:18:00,
2013-12-27 13:19:00,41.9,13.5,29.94,North,7,2.7,2.7,31,0.00,,---,0.00,VWS V14.01,2013-12-27 20:19:00,
2013-12-27 13:21:00,41.9,13.5,29.94,North,11,3.1,3.1,31,0.00,,---,0.00,VWS V14.01,2013-12-27 20:21:00,
2013-12-27 13:22:00,41.9,12.7,29.94,North,7,4.9,4.9,30,0.00,,---,0.00,VWS V14.01,2013-12-27 20:22:00,
2013-12-27 13:23:00,41.9,12.7,29.94,North,9,3.6,4.9,30,0.00,,---,0.00,VWS V14.01,2013-12-27 20:23:00,
2013-12-27 13:24:00,41.9,12.7,29.94,North,10,4.0,4.0,30,0.00,,---,0.00,VWS V14.01,2013-12-27 20:24:00,
2013-12-27 13:26:00,41.9,13.5,29.94,North,4,4.0,4.0,31,0.00,,---,0.00,VWS V14.01,2013-12-27 20:26:00,
2013-12-27 13:27:00,41.7,13.3,29.94,North,4,3.6,4.0,31,0.00,,---,0.00,VWS V14.01,2013-12-27 20:27:00,
2013-12-27 13:28:00,41.7,13.3,29.94,North,4,3.6,4.0,31,0.00,,---,0.00,VWS V14.01,2013-12-27 20:28:00,
2013-12-27 13:29:00,41.7,13.3,29.94,North,5,4.0,4.0,31,0.00,,---,0.00,VWS V14.01,2013-12-27 20:29:00,
2013-12-27 13:30:00,41.7,13.3,29.94,North,4,3.6,3.6,31,0.00,,---,0.00,VWS V14.01,2013-12-27 20:30:00,
2013-12-27 13:31:00,41.5,13.2,29.94,North,8,4.0,4.0,31,0.00,,---,0.00,VWS V14.01,2013-12-27 20:31:00,
2013-12-27 13:33:00,41.5,13.2,29.94,NNE,12,4.0,4.0,31,0.00,,---,0.00,VWS V14.01,2013-12-27 20:33:00,
2013-12-27 13:35:00,41.5,13.2,29.94,North,9,3.6,3.6,31,0.00,,---,0.00,VWS V14.01,2013-12-27 20:35:00,
2013-12-27 13:36:00,41.5,13.2,29.94,NNE,13,2.7,3.6,31,0.00,,---,0.00,VWS V14.01,2013-12-27 20:36:00,
2013-12-27 13:38:00,41.5,13.2,29.94,NNE,13,3.6,3.6,31,0.00,,---,0.00,VWS V14.01,2013-12-27 20:38:00,
2013-12-27 13:40:00,41.5,13.2,29.94,North,10,3.6,4.0,31,0.00,,---,0.00,VWS V14.01,2013-12-27 20:40:00,
2013-12-27 13:41:00,41.7,13.3,29.94,North,8,3.6,3.6,31,0.00,,---,0.00,VWS V14.01,2013-12-27 20:41:00,
2013-12-27 13:43:00,41.7,13.3,29.94,North,9,4.0,4.0,31,0.00,,---,0.00,VWS V14.01,2013-12-27 20:43:00,
2013-12-27 13:44:00,41.7,13.3,29.94,North,7,4.0,4.5,31,0.00,,---,0.00,VWS V14.01,2013-12-27 20:44:00,
2013-12-27 13:45:00,41.7,13.3,29.94,North,357,3.1,3.6,31,0.00,,---,0.00,VWS V14.01,2013-12-27 20:45:00,
2013-12-27 13:46:00,41.7,13.3,29.94,North,5,3.1,4.0,31,0.00,,---,0.00,VWS V14.01,2013-12-27 20:46:00,
2013-12-27 13:47:00,41.7,13.3,29.94,North,5,3.1,3.1,31,0.00,,---,0.00,VWS V14.01,2013-12-27 20:47:00,
2013-12-27 13:48:00,41.7,13.3,29.91,North,9,4.0,4.0,31,0.00,,---,0.00,VWS V14.01,2013-12-27 20:48:00,
2013-12-27 13:49:00,41.7,13.3,29.91,North,10,3.6,4.9,31,0.00,,---,0.00,VWS V14.01,2013-12-27 20:49:00,
2013-12-27 13:50:00,41.5,12.4,29.91,North,10,3.1,4.0,30,0.00,,---,0.00,VWS V14.01,2013-12-27 20:50:00,
2013-12-27 13:51:00,41.5,12.4,29.91,North,11,3.1,3.1,30,0.00,,---,0.00,VWS V14.01,2013-12-27 20:51:00,
2013-12-27 13:52:00,41.5,12.4,29.91,North,5,3.6,3.6,30,0.00,,---,0.00,VWS V14.01,2013-12-27 20:52:00,
2013-12-27 13:53:00,41.5,12.4,29.91,NNE,17,4.5,4.5,30,0.00,,---,0.00,VWS V14.01,2013-12-27 20:53:00,
2013-12-27 13:55:00,41.5,13.2,29.91,NNE,16,3.6,3.6,31,0.00,,---,0.00,VWS V14.01,2013-12-27 20:55:00,
2013-12-27 13:56:00,41.4,13.0,29.91,NNE,15,3.6,3.6,31,0.00,,---,0.00,VWS V14.01,2013-12-27 20:56:00,
2013-12-27 13:57:00,41.4,13.0,29.91,NNE,14,3.1,3.1,31,0.00,,---,0.00,VWS V14.01,2013-12-27 20:57:00,
2013-12-27 13:58:00,41.4,12.3,29.91,North,9,3.1,4.0,30,0.00,,---,0.00,VWS V14.01,2013-12-27 20:58:00,
2013-12-27 14:00:00,41.2,12.1,29.91,NNE,15,3.1,3.6,30,0.00,,---,0.00,VWS V14.01,2013-12-27 21:00:00,
2013-12-27 14:01:00,41.2,12.1,29.91,NNE,13,3.6,4.0,30,0.00,,---,0.00,VWS V14.01,2013-12-27 21:01:00,
2013-12-27 14:02:00,41.2,12.1,29.91,NNE,16,2.7,2.7,30,0.00,,---,0.00,VWS V14.01,2013-12-27 21:02:00,
2013-12-27 14:03:00,41.4,12.3,29.91,North,10,4.0,4.0,30,0.00,,---,0.00,VWS V14.01,2013-12-27 21:03:00,
2013-12-27 14:05:00,41.4,12.3,29.91,North,7,2.7,3.1,30,0.00,,---,0.00,VWS V14.01,2013-12-27 21:05:00,
2013-12-27 14:06:00,41.4,12.3,29.91,North,7,2.7,2.7,30,0.00,,---,0.00,VWS V14.01,2013-12-27 21:06:00,
2013-12-27 14:07:00,41.2,12.1,29.91,NNE,12,3.6,3.6,30,0.00,,---,0.00,VWS V14.01,2013-12-27 21:07:00,
2013-12-27 14:09:00,41.2,12.1,29.91,NNE,13,3.1,3.1,30,0.00,,---,0.00,VWS V14.01,2013-12-27 21:09:00,
2013-12-27 14:10:00,41.2,12.1,29.91,NNE,16,3.6,4.0,30,0.00,,---,0.00,VWS V14.01,2013-12-27 21:10:00,
2013-12-27 14:11:00,41.2,12.1,29.91,North,8,3.1,3.1,30,0.00,,---,0.00,VWS V14.01,2013-12-27 21:11:00,
2013-12-27 14:12:00,41.2,12.1,29.91,North,357,3.1,3.1,30,0.00,,---,0.00,VWS V14.01,2013-12-27 21:12:00,
2013-12-27 14:13:00,41.2,12.1,29.91,NNE,15,3.6,3.6,30,0.00,,---,0.00,VWS V14.01,2013-12-27 21:13:00,
2013-12-27 14:14:00,41.2,12.1,29.91,NNE,16,2.7,2.7,30,0.00,,---,0.00,VWS V14.01,2013-12-27 21:14:00,
2013-12-27 14:15:00,41.4,12.3,29.91,NNE,16,2.2,2.2,30,0.00,,---,0.00,VWS V14.01,2013-12-27 21:15:00,
2013-12-27 14:17:00,41.4,12.3,29.91,NNE,16,2.7,2.7,30,0.00,,---,0.00,VWS V14.01,2013-12-27 21:17:00,
2013-12-27 14:18:00,41.4,12.3,29.91,NNE,16,2.7,2.7,30,0.00,,---,0.00,VWS V14.01,2013-12-27 21:18:00,
2013-12-27 14:19:00,41.4,12.3,29.91,NNE,16,0.0,3.6,30,0.00,,---,0.00,VWS V14.01,2013-12-27 21:19:00,
2013-12-27 14:20:00,41.4,12.3,29.91,NNE,16,0.0,2.7,30,0.00,,---,0.00,VWS V14.01,2013-12-27 21:20:00,
2013-12-27 14:22:00,41.4,12.3,29.91,NNE,16,2.7,3.1,30,0.00,,---,0.00,VWS V14.01,2013-12-27 21:22:00,
2013-12-27 14:23:00,41.4,12.3,29.91,NNE,16,0.0,2.2,30,0.00,,---,0.00,VWS V14.01,2013-12-27 21:23:00,
2013-12-27 14:24:00,41.4,12.3,29.91,NNE,16,3.1,3.1,30,0.00,,---,0.00,VWS V14.01,2013-12-27 21:24:00,
2013-12-27 14:26:00,41.2,12.1,29.91,NNE,17,2.2,2.2,30,0.00,,---,0.00,VWS V14.01,2013-12-27 21:26:00,
2013-12-27 14:27:00,41.2,12.1,29.91,NNE,17,2.7,2.7,30,0.00,,---,0.00,VWS V14.01,2013-12-27 21:27:00,
2013-12-27 14:28:00,41.2,12.1,29.91,NNE,17,3.6,3.6,30,0.00,,---,0.00,VWS V14.01,2013-12-27 21:28:00,
2013-12-27 14:29:00,41.2,12.1,29.91,NNE,16,3.1,3.1,30,0.00,,---,0.00,VWS V14.01,2013-12-27 21:29:00,
2013-12-27 14:30:00,39.6,11.4,29.88,North,5,0.0,0.0,31,0.00,,,0.00,VWS V15.00,2013-12-27 21:30:00,
2013-12-27 14:31:00,41.2,12.1,29.91,North,3,2.7,3.1,30,0.00,,---,0.00,VWS V14.01,2013-12-27 21:31:00,
2013-12-27 14:32:00,41.2,12.1,29.91,North,9,3.1,3.1,30,0.00,,---,0.00,VWS V14.01,2013-12-27 21:32:00,
2013-12-27 14:33:00,41.2,12.1,29.91,North,11,2.7,3.1,30,0.00,,---,0.00,VWS V14.01,2013-12-27 21:33:00,
2013-12-27 14:34:00,41.2,12.1,29.91,North,7,3.1,3.1,30,0.00,,---,0.00,VWS V14.01,2013-12-27 21:34:00,
2013-12-27 14:36:00,41.0,12.0,29.91,North,0,4.9,4.9,30,0.00,,---,0.00,VWS V14.01,2013-12-27 21:36:00,
2013-12-27 14:37:00,41.0,12.0,29.91,North,5,4.0,4.0,30,0.00,,---,0.00,VWS V14.01,2013-12-27 21:37:00,
2013-12-27 14:38:00,41.0,12.0,29.91,NNE,14,4.9,4.9,30,0.00,,---,0.00,VWS V14.01,2013-12-27 21:38:00,
2013-12-27 14:39:00,41.0,12.0,29.91,North,2,4.0,4.0,30,0.00,,---,0.00,VWS V14.01,2013-12-27 21:39:00,
2013-12-27 14:40:00,40.8,12.5,29.91,North,7,3.6,3.6,31,0.00,,---,0.00,VWS V14.01,2013-12-27 21:40:00,
2013-12-27 14:41:00,40.8,11.8,29.91,NNE,16,5.4,5.4,30,0.00,,---,0.00,VWS V14.01,2013-12-27 21:41:00,
2013-12-27 14:42:00,40.6,11.6,29.91,NNE,16,3.1,4.0,30,0.00,,---,0.00,VWS V14.01,2013-12-27 21:42:00,
2013-12-27 14:43:00,40.6,11.6,29.91,North,0,4.0,4.0,30,0.00,,---,0.00,VWS V14.01,2013-12-27 21:43:00,
2013-12-27 14:44:00,40.6,12.4,29.91,NNE,12,4.0,4.9,31,0.00,,---,0.00,VWS V14.01,2013-12-27 21:44:00,
2013-12-27 14:45:00,40.6,12.4,29.91,NNE,12,2.7,3.1,31,0.00,,---,0.00,VWS V14.01,2013-12-27 21:45:00,
2013-12-27 14:46:00,40.6,12.4,29.91,North,5,2.7,3.6,31,0.00,,---,0.00,VWS V14.01,2013-12-27 21:46:00,
2013-12-27 14:47:00,40.5,12.2,29.91,North,5,2.7,2.7,31,0.00,,---,0.00,VWS V14.01,2013-12-27 21:47:00,
2013-12-27 14:48:00,40.5,12.2,29.91,North,5,2.2,2.2,31,0.00,,---,0.00,VWS V14.01,2013-12-27 21:48:00,
2013-12-27 14:49:00,40.5,12.2,29.91,North,357,3.1,3.6,31,0.00,,---,0.00,VWS V14.01,2013-12-27 21:49:00,
2013-12-27 14:50:00,40.5,12.2,29.91,North,357,3.1,3.1,31,0.00,,---,0.00,VWS V14.01,2013-12-27 21:50:00,
2013-12-27 14:51:00,40.5,12.2,29.91,North,0,3.1,3.6,31,0.00,,---,0.00,VWS V14.01,2013-12-27 21:51:00,
2013-12-27 14:53:00,40.5,12.2,29.91,North,2,2.7,3.6,31,0.00,,---,0.00,VWS V14.01,2013-12-27 21:53:00,
2013-12-27 14:54:00,40.5,12.2,29.91,North,2,0.0,0.0,31,0.00,,---,0.00,VWS V14.01,2013-12-27 21:54:00,
2013-12-27 14:55:00,40.5,12.2,29.91,North,2,0.0,0.0,31,0.00,,---,0.00,VWS V14.01,2013-12-27 21:55:00,
2013-12-27 14:56:00,40.3,12.1,29.91,North,2,0.0,0.0,31,0.00,,---,0.00,VWS V14.01,2013-12-27 21:56:00,
2013-12-27 14:58:00,40.3,12.1,29.91,North,2,0.0,0.0,31,0.00,,---,0.00,VWS V14.01,2013-12-27 21:58:00,
2013-12-27 15:00:00,40.3,12.1,29.91,North,2,0.0,0.0,31,0.00,,---,0.00,VWS V14.01,2013-12-27 22:00:00,
2013-12-27 15:02:00,40.3,12.1,29.91,North,5,0.0,0.0,31,0.00,,---,0.00,VWS V14.01,2013-12-27 22:02:00,
2013-12-27 15:03:00,40.3,12.1,29.91,North,5,0.0,0.0,31,0.00,,---,0.00,VWS V14.01,2013-12-27 22:03:00,
2013-12-27 15:05:00,40.1,11.9,29.91,North,5,0.0,0.0,31,0.00,,---,0.00,VWS V14.01,2013-12-27 22:05:00,
2013-12-27 15:08:00,40.1,11.9,29.91,North,5,0.0,0.0,31,0.00,,---,0.00,VWS V14.01,2013-12-27 22:08:00,
2013-12-27 15:10:00,39.9,11.8,29.91,North,5,0.0,0.0,31,0.00,,---,0.00,VWS V14.01,2013-12-27 22:10:00,
2013-12-27 15:13:00,39.9,11.8,29.91,North,5,0.0,0.0,31,0.00,,---,0.00,VWS V14.01,2013-12-27 22:13:00,
2013-12-27 15:14:00,39.9,11.8,29.91,North,5,0.0,0.0,31,0.00,,---,0.00,VWS V14.01,2013-12-27 22:14:00,
2013-12-27 15:15:00,39.9,11.8,29.91,North,5,0.0,0.0,31,0.00,,---,0.00,VWS V14.01,2013-12-27 22:15:00,
2013-12-27 15:16:00,39.9,11.8,29.91,North,5,0.0,0.0,31,0.00,,---,0.00,VWS V14.01,2013-12-27 22:16:00,
2013-12-27 15:18:00,39.9,11.8,29.88,North,5,0.0,0.0,31,0.00,,---,0.00,VWS V14.01,2013-12-27 22:18:00,
2013-12-27 15:20:00,39.7,11.6,29.88,North,5,0.0,0.0,31,0.00,,---,0.00,VWS V14.01,2013-12-27 22:20:00,
2013-12-27 15:21:00,39.7,11.6,29.88,North,5,0.0,0.0,31,0.00,,---,0.00,VWS V14.01,2013-12-27 22:21:00,
2013-12-27 15:22:00,39.7,11.6,29.88,North,5,0.0,0.0,31,0.00,,---,0.00,VWS V14.01,2013-12-27 22:22:00,
2013-12-27 15:23:00,39.7,11.6,29.88,North,5,0.0,0.0,31,0.00,,---,0.00,VWS V14.01,2013-12-27 22:23:00,
2013-12-27 15:25:00,39.7,11.6,29.88,North,5,0.0,0.0,31,0.00,,---,0.00,VWS V14.01,2013-12-27 22:25:00,
2013-12-27 15:26:00,39.7,11.6,29.88,North,5,0.0,0.0,31,0.00,,---,0.00,VWS V14.01,2013-12-27 22:26:00,
2013-12-27 15:27:00,39.7,11.6,29.88,North,5,0.0,0.0,31,0.00,,---,0.00,VWS V14.01,2013-12-27 22:27:00,
2013-12-27 15:28:00,39.7,11.6,29.88,North,5,0.0,0.0,31,0.00,,---,0.00,VWS V14.01,2013-12-27 22:28:00,
2013-12-27 15:30:00,39.6,11.4,29.88,North,5,0.0,0.0,31,0.00,,---,0.00,VWS V14.01,2013-12-27 22:30:00,
2013-12-27 15:32:00,39.6,11.4,29.88,North,5,0.0,0.0,31,0.00,,---,0.00,VWS V14.01,2013-12-27 22:32:00,
2013-12-27 15:33:00,39.6,11.4,29.88,North,5,0.0,0.0,31,0.00,,---,0.00,VWS V14.01,2013-12-27 22:33:00,
2013-12-27 15:34:00,39.4,11.3,29.88,North,5,0.0,0.0,31,0.00,,---,0.00,VWS V14.01,2013-12-27 22:34:00,
2013-12-27 15:35:00,39.4,11.3,29.88,North,5,0.0,0.0,31,0.00,,---,0.00,VWS V14.01,2013-12-27 22:35:00,
2013-12-27 15:37:00,39.4,11.3,29.88,North,5,0.0,0.0,31,0.00,,---,0.00,VWS V14.01,2013-12-27 22:37:00,
2013-12-27 15:38:00,39.2,11.1,29.88,North,5,0.0,0.0,31,0.00,,---,0.00,VWS V14.01,2013-12-27 22:38:00,
2013-12-27 15:39:00,39.2,11.1,29.88,North,5,0.0,0.0,31,0.00,,---,0.00,VWS V14.01,2013-12-27 22:39:00,
2013-12-27 15:40:00,39.2,11.1,29.88,North,9,0.0,0.0,31,0.00,,---,0.00,VWS V14.01,2013-12-27 22:40:00,
2013-12-27 15:41:00,39.2,11.1,29.88,North,9,0.0,0.0,31,0.00,,---,0.00,VWS V14.01,2013-12-27 22:41:00,
2013-12-27 15:42:00,39.2,11.1,29.88,North,9,0.0,0.0,31,0.00,,---,0.00,VWS V14.01,2013-12-27 22:42:00,
2013-12-27 15:43:00,39.0,11.7,29.88,North,9,0.0,0.0,32,0.00,,---,0.00,VWS V14.01,2013-12-27 22:43:00,
2013-12-27 15:44:00,39.0,11.7,29.88,North,9,0.0,0.0,32,0.00,,---,0.00,VWS V14.01,2013-12-27 22:44:00,
2013-12-27 15:45:00,36.5,12.1,29.88,NNE,12,0.0,0.0,36,0.00,,,0.00,VWS V15.00,2013-12-27 22:45:00,
2013-12-27 15:46:00,38.8,11.5,29.88,North,9,0.0,0.0,32,0.00,,---,0.00,VWS V14.01,2013-12-27 22:46:00,
2013-12-27 15:47:00,38.8,11.5,29.88,North,9,0.0,0.0,32,0.00,,---,0.00,VWS V14.01,2013-12-27 22:47:00,
2013-12-27 15:49:00,38.8,11.5,29.88,North,9,0.0,0.0,32,0.00,,---,0.00,VWS V14.01,2013-12-27 22:49:00,
2013-12-27 15:51:00,38.7,11.4,29.88,North,9,0.0,0.0,32,0.00,,---,0.00,VWS V14.01,2013-12-27 22:51:00,
2013-12-27 15:52:00,38.7,11.4,29.88,North,9,0.0,0.0,32,0.00,,---,0.00,VWS V14.01,2013-12-27 22:52:00,
2013-12-27 15:53:00,38.7,11.4,29.88,North,9,0.0,0.0,32,0.00,,---,0.00,VWS V14.01,2013-12-27 22:53:00,
2013-12-27 15:54:00,38.5,11.2,29.88,NNE,12,0.0,0.0,32,0.00,,---,0.00,VWS V14.01,2013-12-27 22:54:00,
2013-12-27 15:55:00,38.5,11.2,29.88,NNE,12,0.0,0.0,32,0.00,,---,0.00,VWS V14.01,2013-12-27 22:55:00,
2013-12-27 15:56:00,38.5,11.2,29.88,NNE,12,0.0,0.0,32,0.00,,---,0.00,VWS V14.01,2013-12-27 22:56:00,
2013-12-27 15:57:00,38.5,11.2,29.88,NNE,13,0.0,0.0,32,0.00,,---,0.00,VWS V14.01,2013-12-27 22:57:00,
2013-12-27 15:58:00,38.5,11.2,29.88,NNE,13,0.0,0.0,32,0.00,,---,0.00,VWS V14.01,2013-12-27 22:58:00,
2013-12-27 15:59:00,38.3,11.0,29.88,NNE,12,0.0,0.0,32,0.00,,---,0.00,VWS V14.01,2013-12-27 22:59:00,
2013-12-27 16:00:00,38.3,11.0,29.88,NNE,12,0.0,0.0,32,0.00,,---,0.00,VWS V14.01,2013-12-27 23:00:00,
2013-12-27 16:01:00,38.3,11.0,29.88,NNE,12,0.0,0.0,32,0.00,,---,0.00,VWS V14.01,2013-12-27 23:01:00,
2013-12-27 16:02:00,38.3,11.0,29.88,NNE,12,0.0,0.0,32,0.00,,---,0.00,VWS V14.01,2013-12-27 23:02:00,
2013-12-27 16:04:00,38.1,10.9,29.88,NNE,12,0.0,0.0,32,0.00,,---,0.00,VWS V14.01,2013-12-27 23:04:00,
2013-12-27 16:05:00,38.1,10.9,29.88,NNE,13,0.0,0.0,32,0.00,,---,0.00,VWS V14.01,2013-12-27 23:05:00,
2013-12-27 16:06:00,38.1,10.9,29.88,NNE,13,0.0,0.0,32,0.00,,---,0.00,VWS V14.01,2013-12-27 23:06:00,
2013-12-27 16:07:00,38.1,10.9,29.88,NNE,12,0.0,0.0,32,0.00,,---,0.00,VWS V14.01,2013-12-27 23:07:00,
2013-12-27 16:08:00,37.9,10.7,29.88,NNE,12,0.0,0.0,32,0.00,,---,0.00,VWS V14.01,2013-12-27 23:08:00,
2013-12-27 16:09:00,37.9,10.7,29.88,NNE,12,0.0,0.0,32,0.00,,---,0.00,VWS V14.01,2013-12-27 23:09:00,
2013-12-27 16:10:00,37.9,10.7,29.88,NNE,12,0.0,0.0,32,0.00,,---,0.00,VWS V14.01,2013-12-27 23:10:00,
2013-12-27 16:11:00,37.8,10.6,29.88,NNE,12,0.0,0.0,32,0.00,,---,0.00,VWS V14.01,2013-12-27 23:11:00,
2013-12-27 16:12:00,37.8,10.6,29.88,NNE,12,0.0,0.0,32,0.00,,---,0.00,VWS V14.01,2013-12-27 23:12:00,
2013-12-27 16:13:00,37.8,10.6,29.88,NNE,12,0.0,0.0,32,0.00,,---,0.00,VWS V14.01,2013-12-27 23:13:00,
2013-12-27 16:14:00,37.6,11.1,29.88,NNE,13,0.0,0.0,33,0.00,,---,0.00,VWS V14.01,2013-12-27 23:14:00,
2013-12-27 16:15:00,37.6,11.1,29.88,NNE,13,0.0,0.0,33,0.00,,---,0.00,VWS V14.01,2013-12-27 23:15:00,
2013-12-27 16:16:00,37.4,10.9,29.88,NNE,12,0.0,0.0,33,0.00,,---,0.00,VWS V14.01,2013-12-27 23:16:00,
2013-12-27 16:17:00,37.4,10.9,29.88,NNE,12,0.0,0.0,33,0.00,,---,0.00,VWS V14.01,2013-12-27 23:17:00,
2013-12-27 16:18:00,37.4,10.9,29.88,NNE,12,0.0,0.0,33,0.00,,---,0.00,VWS V14.01,2013-12-27 23:18:00,
2013-12-27 16:19:00,37.2,10.8,29.88,NNE,13,0.0,0.0,33,0.00,,---,0.00,VWS V14.01,2013-12-27 23:19:00,
2013-12-27 16:20:00,37.2,10.8,29.88,NNE,12,0.0,0.0,33,0.00,,---,0.00,VWS V14.01,2013-12-27 23:20:00,
2013-12-27 16:21:00,37.0,10.6,29.88,NNE,13,0.0,0.0,33,0.00,,---,0.00,VWS V14.01,2013-12-27 23:21:00,
2013-12-27 16:22:00,37.0,10.6,29.88,NNE,13,0.0,0.0,33,0.00,,---,0.00,VWS V14.01,2013-12-27 23:22:00,
2013-12-27 16:23:00,37.0,11.3,29.88,NNE,13,0.0,0.0,34,0.00,,---,0.00,VWS V14.01,2013-12-27 23:23:00,
2013-12-27 16:24:00,36.9,11.1,29.88,NNE,12,0.0,0.0,34,0.00,,---,0.00,VWS V14.01,2013-12-27 23:24:00,
2013-12-27 16:25:00,36.9,11.1,29.88,NNE,12,0.0,0.0,34,0.00,,---,0.00,VWS V14.01,2013-12-27 23:25:00,
2013-12-27 16:26:00,36.7,11.0,29.88,NNE,12,0.0,0.0,34,0.00,,---,0.00,VWS V14.01,2013-12-27 23:26:00,
2013-12-27 16:27:00,36.7,11.0,29.88,NNE,12,0.0,0.0,34,0.00,,---,0.00,VWS V14.01,2013-12-27 23:27:00,
2013-12-27 16:28:00,36.7,11.0,29.88,NNE,12,0.0,0.0,34,0.00,,---,0.00,VWS V14.01,2013-12-27 23:28:00,
2013-12-27 16:30:00,36.5,10.8,29.88,NNE,13,0.0,0.0,34,0.00,,---,0.00,VWS V14.01,2013-12-27 23:30:00,
2013-12-27 16:31:00,36.5,10.8,29.88,NNE,12,0.0,0.0,34,0.00,,---,0.00,VWS V14.01,2013-12-27 23:31:00,
2013-12-27 16:32:00,36.3,11.3,29.88,NNE,13,0.0,0.0,35,0.00,,---,0.00,VWS V14.01,2013-12-27 23:32:00,
2013-12-27 16:33:00,36.3,11.3,29.88,NNE,12,0.0,0.0,35,0.00,,---,0.00,VWS V14.01,2013-12-27 23:33:00,
2013-12-27 16:35:00,36.3,11.3,29.88,NNE,13,0.0,0.0,35,0.00,,---,0.00,VWS V14.01,2013-12-27 23:35:00,
2013-12-27 16:36:00,36.3,11.9,29.88,NNE,12,0.0,0.0,36,0.00,,---,0.00,VWS V14.01,2013-12-27 23:36:00,
2013-12-27 16:37:00,36.3,11.9,29.88,NNE,12,0.0,0.0,36,0.00,,---,0.00,VWS V14.01,2013-12-27 23:37:00,
2013-12-27 16:38:00,36.3,11.9,29.88,NNE,13,0.0,0.0,36,0.00,,---,0.00,VWS V14.01,2013-12-27 23:38:00,
2013-12-27 16:40:00,36.3,11.9,29.88,NNE,12,0.0,0.0,36,0.00,,---,0.00,VWS V14.01,2013-12-27 23:40:00,
2013-12-27 16:41:00,36.3,11.9,29.88,NNE,12,0.0,0.0,36,0.00,,---,0.00,VWS V14.01,2013-12-27 23:41:00,
2013-12-27 16:42:00,36.3,11.9,29.88,NNE,13,0.0,0.0,36,0.00,,---,0.00,VWS V14.01,2013-12-27 23:42:00,
2013-12-27 16:43:00,36.3,11.9,29.88,NNE,12,0.0,0.0,36,0.00,,---,0.00,VWS V14.01,2013-12-27 23:43:00,
2013-12-27 16:45:00,36.5,12.1,29.88,NNE,12,0.0,0.0,36,0.00,,---,0.00,VWS V14.01,2013-12-27 23:45:00,
2013-12-27 16:46:00,36.3,11.9,29.88,NNE,12,0.0,0.0,36,0.00,,---,0.00,VWS V14.01,2013-12-27 23:46:00,
2013-12-27 16:47:00,36.3,11.3,29.88,NNE,13,0.0,0.0,35,0.00,,---,0.00,VWS V14.01,2013-12-27 23:47:00,
2013-12-27 16:48:00,36.3,11.3,29.88,NNE,12,0.0,0.0,35,0.00,,---,0.00,VWS V14.01,2013-12-27 23:48:00,
2013-12-27 16:51:00,36.3,11.9,29.88,NNE,12,0.0,0.0,36,0.00,,---,0.00,VWS V14.01,2013-12-27 23:51:00,
2013-12-27 16:52:00,36.3,11.9,29.88,NNE,12,0.0,0.0,36,0.00,,---,0.00,VWS V14.01,2013-12-27 23:52:00,
2013-12-27 16:53:00,36.3,11.9,29.88,NNE,12,0.0,0.0,36,0.00,,---,0.00,VWS V14.01,2013-12-27 23:53:00,
2013-12-27 16:54:00,36.1,11.8,29.88,NNE,12,0.0,0.0,36,0.00,,---,0.00,VWS V14.01,2013-12-27 23:54:00,
2013-12-27 16:56:00,36.1,11.8,29.88,NNE,12,0.0,0.0,36,0.00,,---,0.00,VWS V14.01,2013-12-27 23:56:00,
2013-12-27 16:57:00,36.1,11.8,29.88,NNE,12,0.0,0.0,36,0.00,,---,0.00,VWS V14.01,2013-12-27 23:57:00,
2013-12-27 16:59:00,36.1,11.8,29.88,NNE,12,0.0,0.0,36,0.00,,---,0.00,VWS V14.01,2013-12-27 23:59:00,
2013-12-27 17:00:00,34.5,12.7,29.85,NE,44,0.0,0.0,40,0.00,,,0.00,VWS V15.00,2013-12-28 00:00:00,
2013-12-27 17:01:00,36.0,12.2,29.88,NNE,13,0.0,0.0,37,0.00,,---,0.00,VWS V14.01,2013-12-28 00:01:00,
2013-12-27 17:02:00,36.0,12.2,29.88,NNE,13,0.0,0.0,37,0.00,,---,0.00,VWS V14.01,2013-12-28 00:02:00,
2013-12-27 17:03:00,36.0,12.2,29.88,NNE,13,0.0,0.0,37,0.00,,---,0.00,VWS V14.01,2013-12-28 00:03:00,
2013-12-27 17:04:00,35.8,12.1,29.88,NNE,13,0.0,0.0,37,0.00,,---,0.00,VWS V14.01,2013-12-28 00:04:00,
2013-12-27 17:05:00,35.8,12.1,29.88,NNE,13,0.0,0.0,37,0.00,,---,0.00,VWS V14.01,2013-12-28 00:05:00,
2013-12-27 17:06:00,35.6,11.9,29.88,NNE,13,0.0,0.0,37,0.00,,---,0.00,VWS V14.01,2013-12-28 00:06:00,
2013-12-27 17:07:00,35.6,11.9,29.88,NNE,13,0.0,0.0,37,0.00,,---,0.00,VWS V14.01,2013-12-28 00:07:00,
2013-12-27 17:08:00,35.4,11.8,29.88,NNE,13,0.0,0.0,37,0.00,,---,0.00,VWS V14.01,2013-12-28 00:08:00,
2013-12-27 17:09:00,35.4,12.4,29.88,NNE,13,0.0,0.0,38,0.00,,---,0.00,VWS V14.01,2013-12-28 00:09:00,
2013-12-27 17:11:00,35.4,12.4,29.88,NNE,13,0.0,0.0,38,0.00,,---,0.00,VWS V14.01,2013-12-28 00:11:00,
2013-12-27 17:12:00,35.2,12.8,29.88,NNE,13,0.0,0.0,39,0.00,,---,0.00,VWS V14.01,2013-12-28 00:12:00,
2013-12-27 17:13:00,35.2,12.8,29.88,NNE,13,0.0,0.0,39,0.00,,---,0.00,VWS V14.01,2013-12-28 00:13:00,
2013-12-27 17:14:00,35.1,13.2,29.88,NNE,13,0.0,0.0,40,0.00,,---,0.00,VWS V14.01,2013-12-28 00:14:00,
2013-12-27 17:15:00,35.1,12.6,29.85,North,349,0.0,0.0,39,0.00,,,0.00,VWS V15.00,2013-12-28 00:15:00,
2013-12-27 17:16:00,35.1,13.2,29.88,NNE,13,0.0,0.0,40,0.00,,---,0.00,VWS V14.01,2013-12-28 00:16:00,
2013-12-27 17:17:00,35.1,13.2,29.88,NNE,13,0.0,0.0,40,0.00,,---,0.00,VWS V14.01,2013-12-28 00:17:00,
2013-12-27 17:18:00,35.1,13.2,29.88,NNE,13,0.0,0.0,40,0.00,,---,0.00,VWS V14.01,2013-12-28 00:18:00,
2013-12-27 17:19:00,35.1,13.2,29.88,NNE,13,0.0,0.0,40,0.00,,---,0.00,VWS V14.01,2013-12-28 00:19:00,
2013-12-27 17:21:00,34.9,13.0,29.88,NNE,13,0.0,0.0,40,0.00,,---,0.00,VWS V14.01,2013-12-28 00:21:00,
2013-12-27 17:22:00,34.9,13.0,29.88,NNE,13,0.0,0.0,40,0.00,,---,0.00,VWS V14.01,2013-12-28 00:22:00,
2013-12-27 17:23:00,34.9,13.0,29.88,NNE,13,0.0,0.0,40,0.00,,---,0.00,VWS V14.01,2013-12-28 00:23:00,
2013-12-27 17:24:00,34.9,13.0,29.88,NNE,13,0.0,0.0,40,0.00,,---,0.00,VWS V14.01,2013-12-28 00:24:00,
2013-12-27 17:27:00,34.9,13.0,29.88,NNE,14,0.0,0.0,40,0.00,,---,0.00,VWS V14.01,2013-12-28 00:27:00,
2013-12-27 17:28:00,35.1,13.2,29.88,NNE,14,3.1,3.1,40,0.00,,---,0.00,VWS V14.01,2013-12-28 00:28:00,
2013-12-27 17:29:00,35.1,13.2,29.88,NNE,14,3.6,3.6,40,0.00,,---,0.00,VWS V14.01,2013-12-28 00:29:00,
2013-12-27 17:30:00,45.1,11.4,29.85,SSW,208,6.7,6.7,25,0.00,,,0.00,VWS V15.00,2013-12-28 00:30:00,
2013-12-27 17:32:00,35.4,13.5,29.88,NNE,16,3.1,4.0,40,0.00,,---,0.00,VWS V14.01,2013-12-28 00:32:00,
2013-12-27 17:33:00,35.4,13.5,29.85,NNE,22,2.7,3.1,40,0.00,,---,0.00,VWS V14.01,2013-12-28 00:33:00,
2013-12-27 17:35:00,35.6,13.1,29.85,NE,42,2.7,2.7,39,0.00,,---,0.00,VWS V14.01,2013-12-28 00:35:00,
2013-12-27 17:37:00,35.6,13.1,29.85,SSW,193,4.0,4.0,39,0.00,,---,0.00,VWS V14.01,2013-12-28 00:37:00,
2013-12-27 17:38:00,35.6,13.1,29.85,South,186,2.7,3.6,39,0.00,,---,0.00,VWS V14.01,2013-12-28 00:38:00,
2013-12-27 17:39:00,35.6,13.1,29.85,SSW,194,4.0,4.0,39,0.00,,---,0.00,VWS V14.01,2013-12-28 00:39:00,
2013-12-27 17:40:00,35.6,13.1,29.85,SSW,203,3.1,3.6,39,0.00,,---,0.00,VWS V14.01,2013-12-28 00:40:00,
2013-12-27 17:42:00,36.0,13.4,29.85,SSW,195,2.7,3.6,39,0.00,,---,0.00,VWS V14.01,2013-12-28 00:42:00,
2013-12-27 17:43:00,36.0,13.4,29.85,South,180,3.1,3.1,39,0.00,,---,0.00,VWS V14.01,2013-12-28 00:43:00,
2013-12-27 17:44:00,36.1,13.6,29.85,South,180,2.7,3.1,39,0.00,,---,0.00,VWS V14.01,2013-12-28 00:44:00,
2013-12-27 17:45:00,36.1,13.6,29.85,South,180,0.0,0.0,39,0.00,,---,0.00,VWS V14.01,2013-12-28 00:45:00,
2013-12-27 17:47:00,36.3,13.2,29.85,South,180,0.0,0.0,38,0.00,,---,0.00,VWS V14.01,2013-12-28 00:47:00,
2013-12-27 17:48:00,36.3,13.2,29.85,South,180,0.0,0.0,38,0.00,,---,0.00,VWS V14.01,2013-12-28 00:48:00,
2013-12-27 17:49:00,36.1,13.0,29.85,South,180,0.0,0.0,38,0.00,,---,0.00,VWS V14.01,2013-12-28 00:49:00,
2013-12-27 17:51:00,36.1,13.6,29.85,NE,46,2.7,3.1,39,0.00,,---,0.00,VWS V14.01,2013-12-28 00:51:00,
2013-12-27 17:53:00,35.6,13.1,29.85,NE,44,3.1,3.1,39,0.00,,---,0.00,VWS V14.01,2013-12-28 00:53:00,
2013-12-27 17:54:00,35.1,13.2,29.85,NE,37,0.0,2.2,40,0.00,,---,0.00,VWS V14.01,2013-12-28 00:54:00,
2013-12-27 17:56:00,34.9,13.0,29.85,NE,44,0.0,0.0,40,0.00,,---,0.00,VWS V14.01,2013-12-28 00:56:00,
2013-12-27 17:58:00,34.5,12.7,29.85,NE,44,0.0,0.0,40,0.00,,---,0.00,VWS V14.01,2013-12-28 00:58:00,
2013-12-27 17:59:00,34.5,12.7,29.85,NE,44,0.0,0.0,40,0.00,,---,0.00,VWS V14.01,2013-12-28 00:59:00,
2013-12-27 18:00:00,48.4,4.3,29.82,SW,215,5.8,6.3,16,0.00,,,0.00,VWS V15.00,2013-12-28 01:00:00,
2013-12-27 18:01:00,34.5,12.7,29.85,NE,44,0.0,0.0,40,0.00,,---,0.00,VWS V14.01,2013-12-28 01:01:00,
2013-12-27 18:03:00,34.5,12.7,29.85,NNE,15,0.0,0.0,40,0.00,,---,0.00,VWS V14.01,2013-12-28 01:03:00,
2013-12-27 18:04:00,34.5,12.7,29.85,NNE,15,0.0,0.0,40,0.00,,---,0.00,VWS V14.01,2013-12-28 01:04:00,
2013-12-27 18:06:00,34.5,12.7,29.85,NNE,14,0.0,0.0,40,0.00,,---,0.00,VWS V14.01,2013-12-28 01:06:00,
2013-12-27 18:08:00,34.7,12.9,29.85,North,349,0.0,0.0,40,0.00,,---,0.00,VWS V14.01,2013-12-28 01:08:00,
2013-12-27 18:09:00,34.7,12.9,29.85,North,349,0.0,0.0,40,0.00,,---,0.00,VWS V14.01,2013-12-28 01:09:00,
2013-12-27 18:10:00,34.7,12.9,29.85,North,349,0.0,0.0,40,0.00,,---,0.00,VWS V14.01,2013-12-28 01:10:00,
2013-12-27 18:11:00,34.7,12.9,29.85,North,349,0.0,0.0,40,0.00,,---,0.00,VWS V14.01,2013-12-28 01:11:00,
2013-12-27 18:13:00,34.9,13.0,29.85,North,349,0.0,0.0,40,0.00,,---,0.00,VWS V14.01,2013-12-28 01:13:00,
2013-12-27 18:14:00,34.9,13.0,29.85,North,349,0.0,0.0,40,0.00,,---,0.00,VWS V14.01,2013-12-28 01:14:00,
2013-12-27 18:15:00,35.1,12.6,29.85,North,349,0.0,0.0,39,0.00,,---,0.00,VWS V14.01,2013-12-28 01:15:00,
2013-12-27 18:16:00,35.2,12.8,29.85,North,349,3.1,3.1,39,0.00,,---,0.00,VWS V14.01,2013-12-28 01:16:00,
2013-12-27 18:18:00,35.8,12.1,29.85,SW,230,2.7,3.6,37,0.00,,---,0.00,VWS V14.01,2013-12-28 01:18:00,
2013-12-27 18:19:00,36.0,12.2,29.85,SW,217,4.0,4.9,37,0.00,,---,0.00,VWS V14.01,2013-12-28 01:19:00,
2013-12-27 18:20:00,36.1,11.8,29.85,SW,218,3.6,4.0,36,0.00,,---,0.00,VWS V14.01,2013-12-28 01:20:00,
2013-12-27 18:21:00,37.4,10.2,29.85,SW,218,7.6,7.6,32,0.00,,---,0.00,VWS V14.01,2013-12-28 01:21:00,
2013-12-27 18:23:00,39.2,10.4,29.85,SW,219,5.8,5.8,30,0.00,,---,0.00,VWS V14.01,2013-12-28 01:23:00,
2013-12-27 18:24:00,40.5,11.5,29.85,SW,222,5.8,5.8,30,0.00,,---,0.00,VWS V14.01,2013-12-28 01:24:00,
2013-12-27 18:25:00,40.5,11.5,29.85,SSW,207,7.6,7.6,30,0.00,,---,0.00,VWS V14.01,2013-12-28 01:25:00,
2013-12-27 18:26:00,42.3,11.5,29.85,SSW,205,10.5,10.5,28,0.00,,---,0.00,VWS V14.01,2013-12-28 01:26:00,
2013-12-27 18:28:00,44.1,10.5,29.85,SSW,209,7.6,8.3,25,0.00,,---,0.00,VWS V14.01,2013-12-28 01:28:00,
2013-12-27 18:29:00,45.0,11.3,29.85,SSW,200,5.8,7.6,25,0.00,,---,0.00,VWS V14.01,2013-12-28 01:29:00,
2013-12-27 18:30:00,45.1,11.4,29.85,SSW,208,6.7,6.7,25,0.00,,---,0.00,VWS V14.01,2013-12-28 01:30:00,
2013-12-27 18:31:00,45.9,9.2,29.85,SW,221,5.8,8.3,22,0.00,,---,0.00,VWS V14.01,2013-12-28 01:31:00,
2013-12-27 18:33:00,46.6,9.8,29.82,SW,216,5.8,5.8,22,0.00,,---,0.00,VWS V14.01,2013-12-28 01:33:00,
2013-12-27 18:34:00,46.8,6.7,29.82,SSW,211,7.6,7.6,19,0.00,,---,0.00,VWS V14.01,2013-12-28 01:34:00,
2013-12-27 18:35:00,46.8,6.7,29.82,SW,227,5.4,5.4,19,0.00,,---,0.00,VWS V14.01,2013-12-28 01:35:00,
2013-12-27 18:37:00,47.3,7.1,29.82,SW,233,3.6,4.0,19,0.00,,---,0.00,VWS V14.01,2013-12-28 01:37:00,
2013-12-27 18:38:00,47.5,4.8,29.82,SSW,199,5.4,6.3,17,0.00,,---,0.00,VWS V14.01,2013-12-28 01:38:00,
2013-12-27 18:39:00,47.5,7.3,29.82,SW,230,4.0,6.3,19,0.00,,---,0.00,VWS V14.01,2013-12-28 01:39:00,
2013-12-27 18:40:00,47.7,7.4,29.82,SW,233,3.6,3.6,19,0.00,,---,0.00,VWS V14.01,2013-12-28 01:40:00,
2013-12-27 18:42:00,47.7,5.0,29.82,SW,222,3.6,3.6,17,0.00,,---,0.00,VWS V14.01,2013-12-28 01:42:00,
2013-12-27 18:44:00,47.7,5.0,29.82,South,184,7.6,7.6,17,0.00,,---,0.00,VWS V14.01,2013-12-28 01:44:00,
2013-12-27 18:45:00,47.7,5.0,29.82,SSW,205,8.7,8.7,17,0.00,,---,0.00,VWS V14.01,2013-12-28 01:45:00,
2013-12-27 18:46:00,47.8,5.2,29.82,SW,214,5.8,5.8,17,0.00,,---,0.00,VWS V14.01,2013-12-28 01:46:00,
2013-12-27 18:47:00,47.8,5.2,29.82,South,181,5.8,5.8,17,0.00,,---,0.00,VWS V14.01,2013-12-28 01:47:00,
2013-12-27 18:49:00,48.2,4.1,29.82,SW,233,4.9,5.8,16,0.00,,---,0.00,VWS V14.01,2013-12-28 01:49:00,
2013-12-27 18:50:00,48.2,4.1,29.82,SSW,203,3.6,3.6,16,0.00,,---,0.00,VWS V14.01,2013-12-28 01:50:00,
2013-12-27 18:51:00,48.4,4.3,29.82,SSW,210,6.3,6.3,16,0.00,,---,0.00,VWS V14.01,2013-12-28 01:51:00,
2013-12-27 18:52:00,48.4,4.3,29.82,SSW,204,6.3,6.3,16,0.00,,---,0.00,VWS V14.01,2013-12-28 01:52:00,
2013-12-27 18:54:00,48.4,4.3,29.82,SSW,201,5.8,5.8,16,0.00,,---,0.00,VWS V14.01,2013-12-28 01:54:00,
2013-12-27 18:55:00,48.4,4.3,29.82,SSW,207,4.5,5.4,16,0.00,,---,0.00,VWS V14.01,2013-12-28 01:55:00,
2013-12-27 18:56:00,48.4,4.3,29.82,SW,223,4.0,5.4,16,0.00,,---,0.00,VWS V14.01,2013-12-28 01:56:00,
2013-12-27 18:57:00,48.4,4.3,29.82,SW,217,4.9,5.4,16,0.00,,---,0.00,VWS V14.01,2013-12-28 01:57:00,
2013-12-27 19:00:00,48.4,4.3,29.82,SSW,207,6.3,6.3,16,0.00,,---,0.00,VWS V14.01,2013-12-28 02:00:00,
2013-12-27 19:01:00,48.4,4.3,29.82,SSW,197,7.6,7.6,16,0.00,,---,0.00,VWS V14.01,2013-12-28 02:01:00,
2013-12-27 19:02:00,48.4,4.3,29.82,SSW,199,6.7,7.6,16,0.00,,---,0.00,VWS V14.01,2013-12-28 02:02:00,
2013-12-27 19:05:00,48.2,4.1,29.82,SSW,208,5.4,5.4,16,0.00,,---,0.00,VWS V14.01,2013-12-28 02:05:00,
2013-12-27 19:06:00,48.2,4.1,29.82,SSW,202,5.4,5.4,16,0.00,,---,0.00,VWS V14.01,2013-12-28 02:06:00,
2013-12-27 19:07:00,48.2,4.1,29.82,SSW,208,5.8,5.8,16,0.00,,---,0.00,VWS V14.01,2013-12-28 02:07:00,
2013-12-27 19:10:00,48.2,4.1,29.82,SSW,206,5.8,5.8,16,0.00,,---,0.00,VWS V14.01,2013-12-28 02:10:00,
2013-12-27 19:11:00,48.0,5.3,29.82,SSW,212,3.6,4.9,17,0.00,,---,0.00,VWS V14.01,2013-12-28 02:11:00,
2013-12-27 19:12:00,48.0,5.3,29.82,SSW,194,5.8,5.8,17,0.00,,---,0.00,VWS V14.01,2013-12-28 02:12:00,
2013-12-27 19:15:00,48.0,5.3,29.82,SSW,213,5.8,6.3,17,0.00,,---,0.00,VWS V14.01,2013-12-28 02:15:00,
2013-12-27 19:16:00,48.0,5.3,29.82,SSW,199,5.8,5.8,17,0.00,,---,0.00,VWS V14.01,2013-12-28 02:16:00,
2013-12-27 19:17:00,48.0,5.3,29.82,SW,229,7.6,7.6,17,0.00,,---,0.00,VWS V14.01,2013-12-28 02:17:00,
2013-12-27 19:18:00,48.0,5.3,29.82,SW,226,4.0,7.6,17,0.00,,---,0.00,VWS V14.01,2013-12-28 02:18:00,
2013-12-27 19:21:00,48.0,5.3,29.82,SW,215,5.8,7.6,17,0.00,,---,0.00,VWS V14.01,2013-12-28 02:21:00,
2013-12-27 19:22:00,48.0,5.3,29.82,SSW,196,6.3,6.3,17,0.00,,---,0.00,VWS V14.01,2013-12-28 02:22:00,
2013-12-27 19:23:00,48.0,5.3,29.82,SSW,213,6.7,6.7,17,0.00,,---,0.00,VWS V14.01,2013-12-28 02:23:00,
2013-12-27 19:26:00,48.0,1.1,29.82,SW,221,5.8,5.8,14,0.00,,---,0.00,VWS V14.01,2013-12-28 02:26:00,
2013-12-27 19:27:00,48.0,1.1,29.82,SW,235,5.8,8.3,14,0.00,,---,0.00,VWS V14.01,2013-12-28 02:27:00,
2013-12-27 19:28:00,48.0,5.3,29.82,SSW,201,6.7,7.6,17,0.00,,---,0.00,VWS V14.01,2013-12-28 02:28:00,
2013-12-27 19:30:00,47.8,1.0,29.79,SSW,208,4.9,7.6,14,0.00,,,0.00,VWS V15.00,2013-12-28 02:30:00,
2013-12-27 19:31:00,48.0,5.3,29.82,SSW,199,6.7,6.7,17,0.00,,---,0.00,VWS V14.01,2013-12-28 02:31:00,
2013-12-27 19:32:00,48.0,1.1,29.82,SSW,206,5.8,7.6,14,0.00,,---,0.00,VWS V14.01,2013-12-28 02:32:00,
2013-12-27 19:33:00,47.8,1.0,29.82,SSW,211,5.8,8.1,14,0.00,,---,0.00,VWS V14.01,2013-12-28 02:33:00,
2013-12-27 19:36:00,47.8,1.0,29.82,SSW,208,6.7,7.6,14,0.00,,---,0.00,VWS V14.01,2013-12-28 02:36:00,
2013-12-27 19:37:00,47.8,1.0,29.82,SSW,205,6.3,6.3,14,0.00,,---,0.00,VWS V14.01,2013-12-28 02:37:00,
2013-12-27 19:38:00,47.8,1.0,29.82,SSW,209,7.6,7.6,14,0.00,,---,0.00,VWS V14.01,2013-12-28 02:38:00,
2013-12-27 19:41:00,48.0,1.1,29.82,SSW,208,5.8,5.8,14,0.00,,---,0.00,VWS V14.01,2013-12-28 02:41:00,
2013-12-27 19:42:00,48.2,1.2,29.82,SSW,213,5.8,7.6,14,0.00,,---,0.00,VWS V14.01,2013-12-28 02:42:00,
2013-12-27 19:43:00,48.2,1.2,29.82,SW,219,7.6,8.3,14,0.00,,---,0.00,VWS V14.01,2013-12-28 02:43:00,
2013-12-27 19:45:00,48.0,1.1,29.79,SSW,207,4.0,4.0,14,0.00,,,0.00,VWS V15.00,2013-12-28 02:45:00,
2013-12-27 19:46:00,48.2,1.2,29.82,SW,219,8.3,8.7,14,0.00,,---,0.00,VWS V14.01,2013-12-28 02:46:00,
2013-12-27 19:47:00,48.2,1.2,29.82,SSW,205,5.8,6.3,14,0.00,,---,0.00,VWS V14.01,2013-12-28 02:47:00,
2013-12-27 19:48:00,48.2,1.2,29.79,SSW,213,7.2,7.2,14,0.00,,---,0.00,VWS V14.01,2013-12-28 02:48:00,
2013-12-27 19:51:00,48.4,1.4,29.79,SSW,208,8.1,8.1,14,0.00,,---,0.00,VWS V14.01,2013-12-28 02:51:00,
2013-12-27 19:53:00,48.4,1.4,29.79,SSW,210,5.4,5.8,14,0.00,,---,0.00,VWS V14.01,2013-12-28 02:53:00,
2013-12-27 19:54:00,48.4,1.4,29.79,SW,216,6.3,8.1,14,0.00,,---,0.00,VWS V14.01,2013-12-28 02:54:00,
2013-12-27 19:57:00,48.4,1.4,29.79,SSW,207,5.4,5.8,14,0.00,,---,0.00,VWS V14.01,2013-12-28 02:57:00,
2013-12-27 19:58:00,48.4,1.4,29.79,SSW,202,5.8,5.8,14,0.00,,---,0.00,VWS V14.01,2013-12-28 02:58:00,
2013-12-27 19:59:00,48.4,1.4,29.79,SSW,210,6.3,6.3,14,0.00,,---,0.00,VWS V14.01,2013-12-28 02:59:00,
2013-12-27 20:00:00,42.8,2.2,29.79,North,7,0.0,0.0,18,0.00,,,0.00,VWS V15.00,2013-12-28 03:00:00,
2013-12-27 20:02:00,48.4,1.4,29.79,SSW,199,5.8,5.8,14,0.00,,---,0.00,VWS V14.01,2013-12-28 03:02:00,
2013-12-27 20:03:00,48.2,1.2,29.79,SSW,203,5.8,5.8,14,0.00,,---,0.00,VWS V14.01,2013-12-28 03:03:00,
2013-12-27 20:04:00,48.2,1.2,29.79,SSW,204,5.4,5.8,14,0.00,,---,0.00,VWS V14.01,2013-12-28 03:04:00,
2013-12-27 20:07:00,48.2,1.2,29.79,SSW,203,7.6,7.6,14,0.00,,---,0.00,VWS V14.01,2013-12-28 03:07:00,
2013-12-27 20:08:00,48.0,1.1,29.79,SSW,203,5.8,7.6,14,0.00,,---,0.00,VWS V14.01,2013-12-28 03:08:00,
2013-12-27 20:09:00,48.0,1.1,29.79,SSW,208,7.2,7.2,14,0.00,,---,0.00,VWS V14.01,2013-12-28 03:09:00,
2013-12-27 20:10:00,48.0,1.1,29.79,SSW,196,8.3,8.3,14,0.00,,---,0.00,VWS V14.01,2013-12-28 03:10:00,
2013-12-27 20:12:00,48.0,1.1,29.79,SSW,205,5.8,6.3,14,0.00,,---,0.00,VWS V14.01,2013-12-28 03:12:00,
2013-12-27 20:14:00,47.8,1.0,29.79,SSW,197,4.9,7.2,14,0.00,,---,0.00,VWS V14.01,2013-12-28 03:14:00,
2013-12-27 20:15:00,47.8,1.0,29.79,SSW,195,6.3,7.6,14,0.00,,---,0.00,VWS V14.01,2013-12-28 03:15:00,
2013-12-27 20:17:00,47.8,1.0,29.79,SSW,211,6.7,6.7,14,0.00,,---,0.00,VWS V14.01,2013-12-28 03:17:00,
2013-12-27 20:19:00,47.8,1.0,29.79,SSW,200,7.6,7.6,14,0.00,,---,0.00,VWS V14.01,2013-12-28 03:19:00,
2013-12-27 20:20:00,47.8,1.0,29.79,SSW,202,6.7,7.6,14,0.00,,---,0.00,VWS V14.01,2013-12-28 03:20:00,
2013-12-27 20:22:00,47.8,1.0,29.79,SW,218,7.6,8.1,14,0.00,,---,0.00,VWS V14.01,2013-12-28 03:22:00,
2013-12-27 20:24:00,47.8,1.0,29.79,SW,226,7.6,7.6,14,0.00,,---,0.00,VWS V14.01,2013-12-28 03:24:00,
2013-12-27 20:25:00,47.8,1.0,29.79,SW,226,7.6,7.6,14,0.00,,---,0.00,VWS V14.01,2013-12-28 03:25:00,
2013-12-27 20:27:00,47.8,1.0,29.79,SW,215,4.9,5.4,14,0.00,,---,0.00,VWS V14.01,2013-12-28 03:27:00,
2013-12-27 20:29:00,47.8,1.0,29.79,SSW,198,7.6,7.6,14,0.00,,---,0.00,VWS V14.01,2013-12-28 03:29:00,
2013-12-27 20:30:00,47.8,1.0,29.79,SSW,206,5.4,7.6,14,0.00,,---,0.00,VWS V14.01,2013-12-28 03:30:00,
2013-12-27 20:33:00,47.7,0.8,29.79,SSW,209,5.8,6.3,14,0.00,,---,0.00,VWS V14.01,2013-12-28 03:33:00,
2013-12-27 20:35:00,47.8,1.0,29.79,SSW,197,5.4,5.8,14,0.00,,---,0.00,VWS V14.01,2013-12-28 03:35:00,
2013-12-27 20:36:00,47.8,1.0,29.79,SSW,201,7.6,7.6,14,0.00,,---,0.00,VWS V14.01,2013-12-28 03:36:00,
2013-12-27 20:38:00,47.8,1.0,29.79,SSW,207,6.3,6.3,14,0.00,,---,0.00,VWS V14.01,2013-12-28 03:38:00,
2013-12-27 20:40:00,48.0,1.1,29.79,SSW,211,4.0,5.4,14,0.00,,---,0.00,VWS V14.01,2013-12-28 03:40:00,
2013-12-27 20:41:00,48.0,1.1,29.79,SSW,195,6.7,6.7,14,0.00,,---,0.00,VWS V14.01,2013-12-28 03:41:00,
2013-12-27 20:43:00,48.0,1.1,29.79,SSW,211,3.6,4.0,14,0.00,,---,0.00,VWS V14.01,2013-12-28 03:43:00,
2013-12-27 20:45:00,48.0,1.1,29.79,SSW,203,5.4,5.4,14,0.00,,---,0.00,VWS V14.01,2013-12-28 03:45:00,
2013-12-27 20:46:00,48.0,1.1,29.79,SSW,202,3.1,4.9,14,0.00,,---,0.00,VWS V14.01,2013-12-28 03:46:00,
2013-12-27 20:48:00,48.0,1.1,29.79,SSW,196,2.7,3.6,14,0.00,,---,0.00,VWS V14.01,2013-12-28 03:48:00,
2013-12-27 20:50:00,47.8,1.0,29.79,SW,214,0.0,0.0,14,0.00,,---,0.00,VWS V14.01,2013-12-28 03:50:00,
2013-12-27 20:51:00,47.8,1.0,29.79,SW,214,0.0,0.0,14,0.00,,---,0.00,VWS V14.01,2013-12-28 03:51:00,
2013-12-27 20:52:00,47.7,0.8,29.79,SW,215,0.0,0.0,14,0.00,,---,0.00,VWS V14.01,2013-12-28 03:52:00,
2013-12-27 20:53:00,47.5,0.7,29.79,SW,215,0.0,0.0,14,0.00,,---,0.00,VWS V14.01,2013-12-28 03:53:00,
2013-12-27 20:56:00,46.6,4.1,29.79,North,7,3.6,4.0,17,0.00,,---,0.00,VWS V14.01,2013-12-28 03:56:00,
2013-12-27 20:57:00,45.1,2.9,29.79,North,3,4.0,4.0,17,0.00,,---,0.00,VWS V14.01,2013-12-28 03:57:00,
2013-12-27 20:58:00,44.1,3.3,29.79,North,7,0.0,2.7,18,0.00,,---,0.00,VWS V14.01,2013-12-28 03:58:00,
2013-12-27 21:00:00,47.3,0.5,29.79,SW,215,4.0,4.9,14,0.00,,,0.00,VWS V15.00,2013-12-28 04:00:00,
2013-12-27 21:01:00,42.3,1.8,29.79,SSW,209,3.1,3.1,18,0.00,,---,0.00,VWS V14.01,2013-12-28 04:01:00,
2013-12-27 21:02:00,41.9,1.5,29.79,SSW,203,5.4,5.4,18,0.00,,---,0.00,VWS V14.01,2013-12-28 04:02:00,
2013-12-27 21:03:00,41.7,1.4,29.79,SSW,204,5.4,5.4,18,0.00,,---,0.00,VWS V14.01,2013-12-28 04:03:00,
2013-12-27 21:06:00,42.4,1.9,29.79,South,191,5.8,5.8,18,0.00,,---,0.00,VWS V14.01,2013-12-28 04:06:00,
2013-12-27 21:07:00,42.4,1.9,29.79,SSW,201,3.6,5.4,18,0.00,,---,0.00,VWS V14.01,2013-12-28 04:07:00,
2013-12-27 21:08:00,43.0,2.4,29.79,SSW,209,4.5,4.9,18,0.00,,---,0.00,VWS V14.01,2013-12-28 04:08:00,
2013-12-27 21:11:00,43.9,3.1,29.79,SSW,202,4.0,4.0,18,0.00,,---,0.00,VWS V14.01,2013-12-28 04:11:00,
2013-12-27 21:12:00,44.1,3.3,29.79,SW,220,4.0,4.9,18,0.00,,---,0.00,VWS V14.01,2013-12-28 04:12:00,
2013-12-27 21:13:00,44.6,2.5,29.79,SSW,210,4.0,5.4,17,0.00,,---,0.00,VWS V14.01,2013-12-28 04:13:00,
2013-12-27 21:15:00,46.8,0.1,29.79,SSW,203,4.0,4.0,14,0.00,,,0.00,VWS V15.00,2013-12-28 04:15:00,
2013-12-27 21:16:00,45.3,0.4,29.79,SSW,201,4.0,4.0,15,0.00,,---,0.00,VWS V14.01,2013-12-28 04:16:00,
2013-12-27 21:17:00,45.5,0.6,29.79,SSW,212,6.3,6.3,15,0.00,,---,0.00,VWS V14.01,2013-12-28 04:17:00,
2013-12-27 21:19:00,46.0,1.0,29.79,SW,236,4.9,4.9,15,0.00,,---,0.00,VWS V14.01,2013-12-28 04:19:00,
2013-12-27 21:21:00,46.8,0.1,29.79,SSW,206,3.6,6.3,14,0.00,,---,0.00,VWS V14.01,2013-12-28 04:21:00,
2013-12-27 21:22:00,46.8,0.1,29.79,SSW,203,5.8,8.3,14,0.00,,---,0.00,VWS V14.01,2013-12-28 04:22:00,
2013-12-27 21:24:00,47.1,0.4,29.79,SSW,213,4.9,6.3,14,0.00,,---,0.00,VWS V14.01,2013-12-28 04:24:00,
2013-12-27 21:26:00,47.5,0.7,29.79,SW,218,4.5,4.9,14,0.00,,---,0.00,VWS V14.01,2013-12-28 04:26:00,
2013-12-27 21:27:00,47.5,0.7,29.79,SSW,200,5.8,5.8,14,0.00,,---,0.00,VWS V14.01,2013-12-28 04:27:00,
2013-12-27 21:28:00,47.5,0.7,29.79,SSW,212,4.0,6.3,14,0.00,,---,0.00,VWS V14.01,2013-12-28 04:28:00,
2013-12-27 21:29:00,47.5,0.7,29.79,SSW,213,3.6,3.6,14,0.00,,---,0.00,VWS V14.01,2013-12-28 04:29:00,
2013-12-27 21:30:00,46.0,1.0,29.79,WSW,256,3.6,5.8,15,0.00,,,0.00,VWS V15.00,2013-12-28 04:30:00,
2013-12-27 21:31:00,47.5,0.7,29.79,SW,218,3.6,4.0,14,0.00,,---,0.00,VWS V14.01,2013-12-28 04:31:00,
2013-12-27 21:32:00,47.5,0.7,29.79,SW,223,4.9,4.9,14,0.00,,---,0.00,VWS V14.01,2013-12-28 04:32:00,
2013-12-27 21:33:00,47.5,0.7,29.79,SW,216,3.1,4.0,14,0.00,,---,0.00,VWS V14.01,2013-12-28 04:33:00,
2013-12-27 21:34:00,47.3,0.5,29.79,SSW,200,5.4,5.4,14,0.00,,---,0.00,VWS V14.01,2013-12-28 04:34:00,
2013-12-27 21:36:00,47.3,0.5,29.79,SSW,211,3.1,3.1,14,0.00,,---,0.00,VWS V14.01,2013-12-28 04:36:00,
2013-12-27 21:37:00,47.3,0.5,29.79,SSW,210,3.6,4.9,14,0.00,,---,0.00,VWS V14.01,2013-12-28 04:37:00,
2013-12-27 21:38:00,47.3,0.5,29.79,SSW,211,4.0,4.0,14,0.00,,---,0.00,VWS V14.01,2013-12-28 04:38:00,
2013-12-27 21:39:00,47.3,0.5,29.79,SSW,205,4.9,5.4,14,0.00,,---,0.00,VWS V14.01,2013-12-28 04:39:00,
2013-12-27 21:41:00,47.3,0.5,29.79,SSW,207,5.8,5.8,14,0.00,,---,0.00,VWS V14.01,2013-12-28 04:41:00,
2013-12-27 21:42:00,47.3,0.5,29.79,SSW,211,4.0,4.5,14,0.00,,---,0.00,VWS V14.01,2013-12-28 04:42:00,
2013-12-27 21:43:00,47.3,0.5,29.79,SW,216,3.6,5.4,14,0.00,,---,0.00,VWS V14.01,2013-12-28 04:43:00,
2013-12-27 21:44:00,47.3,0.5,29.79,SW,219,3.6,3.6,14,0.00,,---,0.00,VWS V14.01,2013-12-28 04:44:00,
2013-12-27 21:45:00,44.2,-0.5,29.79,SW,230,3.6,3.6,15,0.00,,,0.00,VWS V15.00,2013-12-28 04:45:00,
2013-12-27 21:47:00,47.3,0.5,29.79,SSW,212,6.3,6.3,14,0.00,,---,0.00,VWS V14.01,2013-12-28 04:47:00,
2013-12-27 21:48:00,47.3,0.5,29.79,SW,234,3.1,3.6,14,0.00,,---,0.00,VWS V14.01,2013-12-28 04:48:00,
2013-12-27 21:49:00,47.3,0.5,29.79,SSW,210,5.8,5.8,14,0.00,,---,0.00,VWS V14.01,2013-12-28 04:49:00,
2013-12-27 21:52:00,47.3,0.5,29.79,SSW,206,5.8,5.8,14,0.00,,---,0.00,VWS V14.01,2013-12-28 04:52:00,
2013-12-27 21:53:00,47.3,0.5,29.79,SSW,203,4.0,5.4,14,0.00,,---,0.00,VWS V14.01,2013-12-28 04:53:00,
2013-12-27 21:54:00,47.3,0.5,29.79,SW,220,3.1,4.0,14,0.00,,---,0.00,VWS V14.01,2013-12-28 04:54:00,
2013-12-27 21:57:00,47.3,0.5,29.79,SW,215,5.4,8.1,14,0.00,,---,0.00,VWS V14.01,2013-12-28 04:57:00,
2013-12-27 21:58:00,47.3,0.5,29.79,SSW,212,5.8,5.8,14,0.00,,---,0.00,VWS V14.01,2013-12-28 04:58:00,
2013-12-27 21:59:00,47.3,0.5,29.79,SW,220,5.4,5.4,14,0.00,,---,0.00,VWS V14.01,2013-12-28 04:59:00,
2013-12-27 22:00:00,45.5,0.6,29.79,SSW,213,5.8,5.8,15,0.00,,,0.00,VWS V15.00,2013-12-28 05:00:00,
2013-12-27 22:01:00,47.3,0.5,29.79,SSW,209,5.8,5.8,14,0.00,,---,0.00,VWS V14.01,2013-12-28 05:01:00,
2013-12-27 22:06:00,47.1,0.4,29.79,SW,234,4.0,4.0,14,0.00,,---,0.00,VWS V14.01,2013-12-28 05:06:00,
2013-12-27 22:07:00,47.1,0.4,29.79,SW,235,3.6,4.0,14,0.00,,---,0.00,VWS V14.01,2013-12-28 05:07:00,
2013-12-27 22:11:00,46.6,-0.1,29.79,SSW,207,5.8,5.8,14,0.00,,---,0.00,VWS V14.01,2013-12-28 05:11:00,
2013-12-27 22:12:00,46.6,-0.1,29.79,SW,235,4.0,4.9,14,0.00,,---,0.00,VWS V14.01,2013-12-28 05:12:00,
2013-12-27 22:15:00,46.0,1.0,29.76,SSW,206,5.8,6.3,15,0.00,,,0.00,VWS V15.00,2013-12-28 05:15:00,
2013-12-27 22:16:00,46.8,0.1,29.79,SW,223,3.6,3.6,14,0.00,,---,0.00,VWS V14.01,2013-12-28 05:16:00,
2013-12-27 22:17:00,46.9,0.2,29.79,SW,233,3.6,3.6,14,0.00,,---,0.00,VWS V14.01,2013-12-28 05:17:00,
2013-12-27 22:21:00,46.6,-0.1,29.79,West,271,3.6,3.6,14,0.00,,---,0.00,VWS V14.01,2013-12-28 05:21:00,
2013-12-27 22:22:00,46.6,-0.1,29.79,SW,219,3.6,3.6,14,0.00,,---,0.00,VWS V14.01,2013-12-28 05:22:00,
2013-12-27 22:26:00,46.0,1.0,29.79,WSW,245,2.7,2.7,15,0.00,,---,0.00,VWS V14.01,2013-12-28 05:26:00,
2013-12-27 22:27:00,46.0,1.0,29.79,WSW,245,2.2,2.7,15,0.00,,---,0.00,VWS V14.01,2013-12-28 05:27:00,
2013-12-27 22:30:00,46.0,1.0,29.76,SW,220,4.0,4.0,15,0.00,,,0.00,VWS V15.00,2013-12-28 05:30:00,
2013-12-27 22:31:00,46.0,1.0,29.79,WSW,256,4.0,4.0,15,0.00,,---,0.00,VWS V14.01,2013-12-28 05:31:00,
2013-12-27 22:32:00,46.0,1.0,29.79,WSW,256,3.6,4.0,15,0.00,,---,0.00,VWS V14.01,2013-12-28 05:32:00,
2013-12-27 22:33:00,46.0,1.0,29.79,WSW,249,2.7,3.1,15,0.00,,---,0.00,VWS V14.01,2013-12-28 05:33:00,
2013-12-27 22:36:00,45.3,0.4,29.79,West,271,2.2,2.7,15,0.00,,---,0.00,VWS V14.01,2013-12-28 05:36:00,
2013-12-27 22:37:00,45.3,0.4,29.79,West,271,2.7,2.7,15,0.00,,---,0.00,VWS V14.01,2013-12-28 05:37:00,
2013-12-27 22:38:00,45.1,0.3,29.79,WNW,289,3.6,3.6,15,0.00,,---,0.00,VWS V14.01,2013-12-28 05:38:00,
2013-12-27 22:41:00,44.8,0.0,29.79,WSW,253,3.6,3.6,15,0.00,,---,0.00,VWS V14.01,2013-12-28 05:41:00,
2013-12-27 22:42:00,44.8,0.0,29.79,WSW,253,3.6,3.6,15,0.00,,---,0.00,VWS V14.01,2013-12-28 05:42:00,
2013-12-27 22:43:00,44.6,-0.2,29.79,West,265,2.7,3.1,15,0.00,,---,0.00,VWS V14.01,2013-12-28 05:43:00,
2013-12-27 22:45:00,46.0,1.0,29.76,West,275,2.7,2.7,15,0.00,,,0.00,VWS V15.00,2013-12-28 05:45:00,
2013-12-27 22:47:00,44.1,-0.6,29.79,West,266,2.7,5.4,15,0.00,,---,0.00,VWS V14.01,2013-12-28 05:47:00,
2013-12-27 22:48:00,44.2,-0.5,29.79,SW,232,3.6,5.4,15,0.00,,---,0.00,VWS V14.01,2013-12-28 05:48:00,
2013-12-27 22:52:00,44.8,0.0,29.79,WSW,246,3.6,3.6,15,0.00,,---,0.00,VWS V14.01,2013-12-28 05:52:00,
2013-12-27 22:53:00,44.8,0.0,29.79,WSW,246,2.2,2.7,15,0.00,,---,0.00,VWS V14.01,2013-12-28 05:53:00,
2013-12-27 22:57:00,45.1,0.3,29.79,South,191,5.4,5.4,15,0.00,,---,0.00,VWS V14.01,2013-12-28 05:57:00,
2013-12-27 22:58:00,45.1,0.3,29.79,SSW,199,5.4,5.8,15,0.00,,---,0.00,VWS V14.01,2013-12-28 05:58:00,
2013-12-27 22:59:00,45.1,0.3,29.79,SW,221,4.9,5.8,15,0.00,,---,0.00,VWS V14.01,2013-12-28 05:59:00,
2013-12-27 23:00:00,44.4,-0.3,29.76,WSW,249,2.7,3.1,15,0.00,,,0.00,VWS V15.00,2013-12-28 06:00:00,
2013-12-27 23:02:00,45.7,0.7,29.76,SSW,208,3.6,3.6,15,0.00,,---,0.00,VWS V14.01,2013-12-28 06:02:00,
2013-12-27 23:03:00,45.9,0.8,29.76,SSW,209,2.2,3.1,15,0.00,,---,0.00,VWS V14.01,2013-12-28 06:03:00,
2013-12-27 23:04:00,45.9,0.8,29.76,SSW,209,2.7,2.7,15,0.00,,---,0.00,VWS V14.01,2013-12-28 06:04:00,
2013-12-27 23:05:00,45.9,0.8,29.76,SSW,209,0.0,2.7,15,0.00,,---,0.00,VWS V14.01,2013-12-28 06:05:00,
2013-12-27 23:07:00,45.7,0.7,29.76,SW,222,3.1,4.0,15,0.00,,---,0.00,VWS V14.01,2013-12-28 06:07:00,
2013-12-27 23:08:00,45.7,0.7,29.76,SW,220,5.8,7.6,15,0.00,,---,0.00,VWS V14.01,2013-12-28 06:08:00,
2013-12-27 23:09:00,45.5,0.6,29.76,SW,216,3.6,4.9,15,0.00,,---,0.00,VWS V14.01,2013-12-28 06:09:00,
2013-12-27 23:10:00,45.5,0.6,29.76,SSW,209,4.5,5.4,15,0.00,,---,0.00,VWS V14.01,2013-12-28 06:10:00,
2013-12-27 23:12:00,45.7,0.7,29.76,SSW,207,5.8,5.8,15,0.00,,---,0.00,VWS V14.01,2013-12-28 06:12:00,
2013-12-27 23:13:00,45.7,0.7,29.76,SSW,211,5.8,5.8,15,0.00,,---,0.00,VWS V14.01,2013-12-28 06:13:00,
2013-12-27 23:14:00,45.9,0.8,29.76,SSW,208,6.3,6.3,15,0.00,,---,0.00,VWS V14.01,2013-12-28 06:14:00,
2013-12-27 23:15:00,46.0,1.0,29.76,SSW,206,5.8,6.3,15,0.00,,---,0.00,VWS V14.01,2013-12-28 06:15:00,
2013-12-27 23:17:00,46.0,1.0,29.76,SSW,206,5.4,5.4,15,0.00,,---,0.00,VWS V14.01,2013-12-28 06:17:00,
2013-12-27 23:18:00,46.0,1.0,29.76,SSW,209,5.4,5.4,15,0.00,,---,0.00,VWS V14.01,2013-12-28 06:18:00,
2013-12-27 23:19:00,46.0,1.0,29.76,SW,214,5.4,5.4,15,0.00,,---,0.00,VWS V14.01,2013-12-28 06:19:00,
2013-12-27 23:20:00,46.0,1.0,29.76,SW,214,6.3,6.3,15,0.00,,---,0.00,VWS V14.01,2013-12-28 06:20:00,
2013-12-27 23:23:00,46.2,1.1,29.76,SSW,212,4.0,4.0,15,0.00,,---,0.00,VWS V14.01,2013-12-28 06:23:00,
2013-12-27 23:24:00,46.2,1.1,29.76,SSW,192,3.6,5.4,15,0.00,,---,0.00,VWS V14.01,2013-12-28 06:24:00,
2013-12-27 23:25:00,46.2,1.1,29.76,SSW,207,3.1,4.0,15,0.00,,---,0.00,VWS V14.01,2013-12-28 06:25:00,
2013-12-27 23:28:00,46.2,1.1,29.76,SW,219,3.6,3.6,15,0.00,,---,0.00,VWS V14.01,2013-12-28 06:28:00,
2013-12-27 23:30:00,46.0,1.0,29.76,SSW,207,3.6,4.0,15,0.00,,---,0.00,VWS V14.01,2013-12-28 06:30:00,
2013-12-27 23:33:00,45.9,0.8,29.76,SW,217,4.0,4.0,15,0.00,,---,0.00,VWS V14.01,2013-12-28 06:33:00,
2013-12-27 23:34:00,45.9,0.8,29.76,SSW,205,5.8,6.7,15,0.00,,---,0.00,VWS V14.01,2013-12-28 06:34:00,
2013-12-27 23:35:00,45.9,0.8,29.76,SSW,212,5.4,5.4,15,0.00,,---,0.00,VWS V14.01,2013-12-28 06:35:00,
2013-12-27 23:38:00,46.0,1.0,29.76,SSW,202,4.0,7.6,15,0.00,,---,0.00,VWS V14.01,2013-12-28 06:38:00,
2013-12-27 23:39:00,46.0,1.0,29.76,SW,224,4.0,4.9,15,0.00,,---,0.00,VWS V14.01,2013-12-28 06:39:00,
2013-12-27 23:40:00,46.0,1.0,29.76,SW,219,5.8,5.8,15,0.00,,---,0.00,VWS V14.01,2013-12-28 06:40:00,
2013-12-27 23:43:00,46.0,1.0,29.76,SSW,200,5.8,5.8,15,0.00,,---,0.00,VWS V14.01,2013-12-28 06:43:00,
2013-12-27 23:44:00,46.0,1.0,29.76,WSW,242,3.6,3.6,15,0.00,,---,0.00,VWS V14.01,2013-12-28 06:44:00,
2013-12-27 23:45:00,45.9,0.8,29.76,SW,219,2.2,3.6,15,0.00,,---,0.00,VWS V14.01,2013-12-28 06:45:00,
2013-12-27 23:48:00,45.9,0.8,29.76,WSW,243,3.1,3.1,15,0.00,,---,0.00,VWS V14.01,2013-12-28 06:48:00,
2013-12-27 23:49:00,45.7,0.7,29.76,WSW,253,3.6,3.6,15,0.00,,---,0.00,VWS V14.01,2013-12-28 06:49:00,
2013-12-27 23:51:00,45.5,0.6,29.76,West,263,4.0,4.0,15,0.00,,---,0.00,VWS V14.01,2013-12-28 06:51:00,
2013-12-27 23:52:00,45.5,0.6,29.76,WSW,244,3.6,4.0,15,0.00,,---,0.00,VWS V14.01,2013-12-28 06:52:00,
2013-12-27 23:53:00,45.3,0.4,29.76,West,277,5.8,5.8,15,0.00,,---,0.00,VWS V14.01,2013-12-28 06:53:00,
2013-12-27 23:54:00,45.3,0.4,29.76,West,278,4.0,5.8,15,0.00,,---,0.00,VWS V14.01,2013-12-28 06:54:00,
2013-12-27 23:57:00,45.0,0.1,29.76,West,267,3.6,3.6,15,0.00,,---,0.00,VWS V14.01,2013-12-28 06:57:00,
2013-12-27 23:58:00,44.6,-0.2,29.76,West,260,3.1,3.6,15,0.00,,---,0.00,VWS V14.01,2013-12-28 06:58:00,
2013-12-27 23:59:00,44.4,-0.3,29.76,SW,234,4.0,4.0,15,0.00,,---,0.00,VWS V14.01,2013-12-28 06:59:00,